<?xml version="1.0" encoding="UTF-8" standalone="no" ?>
<gpx xmlns="http://www.topografix.com/GPX/1/1" xmlns:xsi="http://www.w3.org/2001/XMLSchema-instance" xsi:schemaLocation="http://www.topografix.com/GPX/1/1 http://www.topografix.com/GPX/1/1/gpx.xsd" version="1.1" creator="VisuGPX - https://www.visugpx.com">
  <metadata>
    <name>Boucle Cirque St Même &amp;amp; Sangle du Fouda Blanc</name>
    <desc><![CDATA[{DC1}Heure de fin	: 17:39:49
Durée totale	: 292h19:44
Moyenne globale	: 0.0 km/h
Pente moyenne	: 17.78 %
Aire incluse	: 323.6695 ha
Bornes emprise	: 45.4197 5.8866 ; 45.3905 5.9130
Détails par segments
distance  | durée    | vit.moy. | vit.max. | déniv. + | déniv -
   km     | hh:mn:ss |   km/h   |   km/h   |    m     |    m
    12.74 | 07:07:47 |      1.8 |     16.1 |     1141 |    -1124{DC2}]]></desc>
  </metadata>
  <trk>
    <name><![CDATA[Boucle Cirque St Même & Sangle du Fouda Blanc]]></name>
    <cmt><![CDATA[18/06/2019]]></cmt>
    <desc><![CDATA[{DC1}Heure de fin	: 17:39:49
Durée totale	: 292h19:44
Moyenne globale	: 0.0 km/h
Pente moyenne	: 17.78 %
Aire incluse	: 323.6695 ha
Bornes emprise	: 45.4197 5.8866 ; 45.3905 5.9130
Détails par segments
distance  | durée    | vit.moy. | vit.max. | déniv. + | déniv -
   km     | hh:mn:ss |   km/h   |   km/h   |    m     |    m
    12.74 | 07:07:47 |      1.8 |     16.1 |     1141 |    -1124{DC2}]]></desc>
    <trkseg>
      <trkpt lat="45.40119" lon="5.89062">
        <ele>780</ele>
        <time>2019-06-18T08:32:02Z</time>
      </trkpt>
      <trkpt lat="45.40111" lon="5.89062">
        <ele>847</ele>
        <time>2019-06-18T08:33:12Z</time>
      </trkpt>
      <trkpt lat="45.40108" lon="5.89051">
        <ele>859</ele>
        <time>2019-06-18T08:38:09Z</time>
      </trkpt>
      <trkpt lat="45.40098" lon="5.89049">
        <ele>861</ele>
        <time>2019-06-18T08:38:33Z</time>
      </trkpt>
      <trkpt lat="45.40091" lon="5.89053">
        <ele>861</ele>
        <time>2019-06-18T08:38:39Z</time>
      </trkpt>
      <trkpt lat="45.40081" lon="5.89058">
        <ele>861</ele>
        <time>2019-06-18T08:38:54Z</time>
      </trkpt>
      <trkpt lat="45.40071" lon="5.89066">
        <ele>863</ele>
        <time>2019-06-18T08:39:10Z</time>
      </trkpt>
      <trkpt lat="45.40064" lon="5.89069">
        <ele>863</ele>
        <time>2019-06-18T08:39:52Z</time>
      </trkpt>
      <trkpt lat="45.40053" lon="5.89072">
        <ele>861</ele>
        <time>2019-06-18T08:40:05Z</time>
      </trkpt>
      <trkpt lat="45.40043" lon="5.89077">
        <ele>863</ele>
        <time>2019-06-18T08:40:14Z</time>
      </trkpt>
      <trkpt lat="45.40025" lon="5.89089">
        <ele>864</ele>
        <time>2019-06-18T08:40:30Z</time>
      </trkpt>
      <trkpt lat="45.40018" lon="5.89097">
        <ele>864</ele>
        <time>2019-06-18T08:40:38Z</time>
      </trkpt>
      <trkpt lat="45.40003" lon="5.89109">
        <ele>865</ele>
        <time>2019-06-18T08:40:50Z</time>
      </trkpt>
      <trkpt lat="45.3999" lon="5.89113">
        <ele>865</ele>
        <time>2019-06-18T08:41:02Z</time>
      </trkpt>
      <trkpt lat="45.39979" lon="5.8912">
        <ele>854</ele>
        <time>2019-06-18T08:42:44Z</time>
      </trkpt>
      <trkpt lat="45.39955" lon="5.89134">
        <ele>855</ele>
        <time>2019-06-18T08:43:02Z</time>
      </trkpt>
      <trkpt lat="45.39919" lon="5.89143">
        <ele>857</ele>
        <time>2019-06-18T08:43:30Z</time>
      </trkpt>
      <trkpt lat="45.39904" lon="5.8915">
        <ele>857</ele>
        <time>2019-06-18T08:43:44Z</time>
      </trkpt>
      <trkpt lat="45.39895" lon="5.8916">
        <ele>858</ele>
        <time>2019-06-18T08:43:54Z</time>
      </trkpt>
      <trkpt lat="45.39886" lon="5.89162">
        <ele>859</ele>
        <time>2019-06-18T08:44:03Z</time>
      </trkpt>
      <trkpt lat="45.39872" lon="5.89166">
        <ele>860</ele>
        <time>2019-06-18T08:44:20Z</time>
      </trkpt>
      <trkpt lat="45.39868" lon="5.89178">
        <ele>860</ele>
        <time>2019-06-18T08:44:46Z</time>
      </trkpt>
      <trkpt lat="45.3986" lon="5.89182">
        <ele>860</ele>
        <time>2019-06-18T08:44:53Z</time>
      </trkpt>
      <trkpt lat="45.39852" lon="5.89188">
        <ele>860</ele>
        <time>2019-06-18T08:45:01Z</time>
      </trkpt>
      <trkpt lat="45.39839" lon="5.89199">
        <ele>860</ele>
        <time>2019-06-18T08:45:11Z</time>
      </trkpt>
      <trkpt lat="45.39819" lon="5.89207">
        <ele>859</ele>
        <time>2019-06-18T08:45:26Z</time>
      </trkpt>
      <trkpt lat="45.39799" lon="5.89204">
        <ele>859</ele>
        <time>2019-06-18T08:45:41Z</time>
      </trkpt>
      <trkpt lat="45.39774" lon="5.89195">
        <ele>858</ele>
        <time>2019-06-18T08:46:01Z</time>
      </trkpt>
      <trkpt lat="45.39745" lon="5.89184">
        <ele>860</ele>
        <time>2019-06-18T08:46:24Z</time>
      </trkpt>
      <trkpt lat="45.39718" lon="5.89189">
        <ele>861</ele>
        <time>2019-06-18T08:46:50Z</time>
      </trkpt>
      <trkpt lat="45.39702" lon="5.89193">
        <ele>861</ele>
        <time>2019-06-18T08:46:59Z</time>
      </trkpt>
      <trkpt lat="45.39693" lon="5.89189">
        <ele>861</ele>
        <time>2019-06-18T08:47:07Z</time>
      </trkpt>
      <trkpt lat="45.39675" lon="5.8917">
        <ele>861</ele>
        <time>2019-06-18T08:47:22Z</time>
      </trkpt>
      <trkpt lat="45.39634" lon="5.89147">
        <ele>862</ele>
        <time>2019-06-18T08:47:55Z</time>
      </trkpt>
      <trkpt lat="45.39624" lon="5.8915">
        <ele>862</ele>
        <time>2019-06-18T08:48:09Z</time>
      </trkpt>
      <trkpt lat="45.39614" lon="5.89157">
        <ele>864</ele>
        <time>2019-06-18T08:48:45Z</time>
      </trkpt>
      <trkpt lat="45.39602" lon="5.89166">
        <ele>867</ele>
        <time>2019-06-18T08:49:03Z</time>
      </trkpt>
      <trkpt lat="45.39578" lon="5.89167">
        <ele>875</ele>
        <time>2019-06-18T08:49:41Z</time>
      </trkpt>
      <trkpt lat="45.39568" lon="5.89171">
        <ele>877</ele>
        <time>2019-06-18T08:49:54Z</time>
      </trkpt>
      <trkpt lat="45.39561" lon="5.89178">
        <ele>880</ele>
        <time>2019-06-18T08:50:06Z</time>
      </trkpt>
      <trkpt lat="45.39571" lon="5.89212">
        <ele>888</ele>
        <time>2019-06-18T08:50:45Z</time>
      </trkpt>
      <trkpt lat="45.39573" lon="5.89223">
        <ele>890</ele>
        <time>2019-06-18T08:50:57Z</time>
      </trkpt>
      <trkpt lat="45.39561" lon="5.89222">
        <ele>893</ele>
        <time>2019-06-18T08:51:12Z</time>
      </trkpt>
      <trkpt lat="45.39546" lon="5.89225">
        <ele>898</ele>
        <time>2019-06-18T08:51:39Z</time>
      </trkpt>
      <trkpt lat="45.39547" lon="5.89237">
        <ele>902</ele>
        <time>2019-06-18T08:51:58Z</time>
      </trkpt>
      <trkpt lat="45.39549" lon="5.89247">
        <ele>903</ele>
        <time>2019-06-18T08:52:06Z</time>
      </trkpt>
      <trkpt lat="45.39545" lon="5.89255">
        <ele>909</ele>
        <time>2019-06-18T08:52:34Z</time>
      </trkpt>
      <trkpt lat="45.39515" lon="5.89258">
        <ele>916</ele>
        <time>2019-06-18T08:53:16Z</time>
      </trkpt>
      <trkpt lat="45.39508" lon="5.89251">
        <ele>918</ele>
        <time>2019-06-18T08:53:28Z</time>
      </trkpt>
      <trkpt lat="45.39495" lon="5.89239">
        <ele>918</ele>
        <time>2019-06-18T08:53:38Z</time>
      </trkpt>
      <trkpt lat="45.395" lon="5.89228">
        <ele>918</ele>
        <time>2019-06-18T08:53:54Z</time>
      </trkpt>
      <trkpt lat="45.39505" lon="5.89231">
        <ele>919</ele>
        <time>2019-06-18T08:55:09Z</time>
      </trkpt>
      <trkpt lat="45.39501" lon="5.89244">
        <ele>920</ele>
        <time>2019-06-18T08:55:18Z</time>
      </trkpt>
      <trkpt lat="45.39513" lon="5.89263">
        <ele>926</ele>
        <time>2019-06-18T08:55:48Z</time>
      </trkpt>
      <trkpt lat="45.39501" lon="5.89264">
        <ele>930</ele>
        <time>2019-06-18T08:56:08Z</time>
      </trkpt>
      <trkpt lat="45.39502" lon="5.89279">
        <ele>936</ele>
        <time>2019-06-18T08:56:36Z</time>
      </trkpt>
      <trkpt lat="45.39507" lon="5.89293">
        <ele>941</ele>
        <time>2019-06-18T08:57:00Z</time>
      </trkpt>
      <trkpt lat="45.39503" lon="5.89303">
        <ele>944</ele>
        <time>2019-06-18T08:57:14Z</time>
      </trkpt>
      <trkpt lat="45.39481" lon="5.89312">
        <ele>950</ele>
        <time>2019-06-18T08:57:46Z</time>
      </trkpt>
      <trkpt lat="45.39483" lon="5.89327">
        <ele>955</ele>
        <time>2019-06-18T08:58:07Z</time>
      </trkpt>
      <trkpt lat="45.3949" lon="5.89342">
        <ele>959</ele>
        <time>2019-06-18T08:58:27Z</time>
      </trkpt>
      <trkpt lat="45.39481" lon="5.89346">
        <ele>965</ele>
        <time>2019-06-18T08:58:56Z</time>
      </trkpt>
      <trkpt lat="45.39469" lon="5.89348">
        <ele>969</ele>
        <time>2019-06-18T08:59:14Z</time>
      </trkpt>
      <trkpt lat="45.3945" lon="5.89356">
        <ele>974</ele>
        <time>2019-06-18T08:59:42Z</time>
      </trkpt>
      <trkpt lat="45.39438" lon="5.89352">
        <ele>979</ele>
        <time>2019-06-18T09:00:04Z</time>
      </trkpt>
      <trkpt lat="45.39418" lon="5.89348">
        <ele>981</ele>
        <time>2019-06-18T09:00:27Z</time>
      </trkpt>
      <trkpt lat="45.3941" lon="5.89357">
        <ele>981</ele>
        <time>2019-06-18T09:00:37Z</time>
      </trkpt>
      <trkpt lat="45.39403" lon="5.89363">
        <ele>982</ele>
        <time>2019-06-18T09:00:46Z</time>
      </trkpt>
      <trkpt lat="45.39376" lon="5.89348">
        <ele>985</ele>
        <time>2019-06-18T09:01:17Z</time>
      </trkpt>
      <trkpt lat="45.39349" lon="5.89333">
        <ele>992</ele>
        <time>2019-06-18T09:01:58Z</time>
      </trkpt>
      <trkpt lat="45.39342" lon="5.89337">
        <ele>994</ele>
        <time>2019-06-18T09:02:08Z</time>
      </trkpt>
      <trkpt lat="45.39331" lon="5.89337">
        <ele>996</ele>
        <time>2019-06-18T09:02:24Z</time>
      </trkpt>
      <trkpt lat="45.39318" lon="5.89333">
        <ele>999</ele>
        <time>2019-06-18T09:02:42Z</time>
      </trkpt>
      <trkpt lat="45.39298" lon="5.8932">
        <ele>1004</ele>
        <time>2019-06-18T09:03:15Z</time>
      </trkpt>
      <trkpt lat="45.39282" lon="5.89309">
        <ele>1010</ele>
        <time>2019-06-18T09:03:51Z</time>
      </trkpt>
      <trkpt lat="45.39275" lon="5.89301">
        <ele>1014</ele>
        <time>2019-06-18T09:04:09Z</time>
      </trkpt>
      <trkpt lat="45.39264" lon="5.893">
        <ele>1018</ele>
        <time>2019-06-18T09:04:36Z</time>
      </trkpt>
      <trkpt lat="45.39243" lon="5.89275">
        <ele>1025</ele>
        <time>2019-06-18T09:05:22Z</time>
      </trkpt>
      <trkpt lat="45.39233" lon="5.89264">
        <ele>1030</ele>
        <time>2019-06-18T09:05:44Z</time>
      </trkpt>
      <trkpt lat="45.39222" lon="5.89259">
        <ele>1034</ele>
        <time>2019-06-18T09:06:07Z</time>
      </trkpt>
      <trkpt lat="45.39214" lon="5.89266">
        <ele>1035</ele>
        <time>2019-06-18T09:06:27Z</time>
      </trkpt>
      <trkpt lat="45.39206" lon="5.89245">
        <ele>1031</ele>
        <time>2019-06-18T09:06:57Z</time>
      </trkpt>
      <trkpt lat="45.39198" lon="5.89219">
        <ele>1024</ele>
        <time>2019-06-18T09:07:29Z</time>
      </trkpt>
      <trkpt lat="45.3919" lon="5.89177">
        <ele>1018</ele>
        <time>2019-06-18T09:08:07Z</time>
      </trkpt>
      <trkpt lat="45.39183" lon="5.89165">
        <ele>1018</ele>
        <time>2019-06-18T09:08:38Z</time>
      </trkpt>
      <trkpt lat="45.39175" lon="5.89163">
        <ele>1015</ele>
        <time>2019-06-18T09:09:31Z</time>
      </trkpt>
      <trkpt lat="45.39191" lon="5.89069">
        <ele>1017</ele>
        <time>2019-06-18T09:10:13Z</time>
      </trkpt>
      <trkpt lat="45.39181" lon="5.89052">
        <ele>1017</ele>
        <time>2019-06-18T09:10:30Z</time>
      </trkpt>
      <trkpt lat="45.39176" lon="5.89073">
        <ele>1019</ele>
        <time>2019-06-18T09:11:10Z</time>
      </trkpt>
      <trkpt lat="45.39189" lon="5.89113">
        <ele>1021</ele>
        <time>2019-06-18T09:11:22Z</time>
      </trkpt>
      <trkpt lat="45.39202" lon="5.89136">
        <ele>1025</ele>
        <time>2019-06-18T09:11:41Z</time>
      </trkpt>
      <trkpt lat="45.39215" lon="5.8917">
        <ele>1032</ele>
        <time>2019-06-18T09:12:12Z</time>
      </trkpt>
      <trkpt lat="45.39209" lon="5.89181">
        <ele>1034</ele>
        <time>2019-06-18T09:12:22Z</time>
      </trkpt>
      <trkpt lat="45.3921" lon="5.89207">
        <ele>1038</ele>
        <time>2019-06-18T09:12:37Z</time>
      </trkpt>
      <trkpt lat="45.39209" lon="5.89221">
        <ele>1038</ele>
        <time>2019-06-18T09:12:45Z</time>
      </trkpt>
      <trkpt lat="45.39214" lon="5.89231">
        <ele>1040</ele>
        <time>2019-06-18T09:12:56Z</time>
      </trkpt>
      <trkpt lat="45.39193" lon="5.89229">
        <ele>1049</ele>
        <time>2019-06-18T09:13:41Z</time>
      </trkpt>
      <trkpt lat="45.39182" lon="5.89233">
        <ele>1053</ele>
        <time>2019-06-18T09:14:03Z</time>
      </trkpt>
      <trkpt lat="45.39181" lon="5.89246">
        <ele>1059</ele>
        <time>2019-06-18T09:14:44Z</time>
      </trkpt>
      <trkpt lat="45.39186" lon="5.89255">
        <ele>1062</ele>
        <time>2019-06-18T09:15:08Z</time>
      </trkpt>
      <trkpt lat="45.39188" lon="5.89275">
        <ele>1066</ele>
        <time>2019-06-18T09:15:32Z</time>
      </trkpt>
      <trkpt lat="45.39179" lon="5.89278">
        <ele>1072</ele>
        <time>2019-06-18T09:16:02Z</time>
      </trkpt>
      <trkpt lat="45.39171" lon="5.89285">
        <ele>1075</ele>
        <time>2019-06-18T09:16:17Z</time>
      </trkpt>
      <trkpt lat="45.39164" lon="5.89284">
        <ele>1077</ele>
        <time>2019-06-18T09:16:30Z</time>
      </trkpt>
      <trkpt lat="45.39148" lon="5.89287">
        <ele>1086</ele>
        <time>2019-06-18T09:17:18Z</time>
      </trkpt>
      <trkpt lat="45.39141" lon="5.89287">
        <ele>1088</ele>
        <time>2019-06-18T09:17:52Z</time>
      </trkpt>
      <trkpt lat="45.39143" lon="5.89299">
        <ele>1095</ele>
        <time>2019-06-18T09:19:01Z</time>
      </trkpt>
      <trkpt lat="45.39142" lon="5.89317">
        <ele>1098</ele>
        <time>2019-06-18T09:19:15Z</time>
      </trkpt>
      <trkpt lat="45.39139" lon="5.8933">
        <ele>1101</ele>
        <time>2019-06-18T09:19:35Z</time>
      </trkpt>
      <trkpt lat="45.3914" lon="5.89343">
        <ele>1105</ele>
        <time>2019-06-18T09:20:05Z</time>
      </trkpt>
      <trkpt lat="45.39147" lon="5.89349">
        <ele>1107</ele>
        <time>2019-06-18T09:20:20Z</time>
      </trkpt>
      <trkpt lat="45.39157" lon="5.89374">
        <ele>1112</ele>
        <time>2019-06-18T09:21:11Z</time>
      </trkpt>
      <trkpt lat="45.39153" lon="5.89365">
        <ele>1125</ele>
        <time>2019-06-18T09:22:48Z</time>
      </trkpt>
      <trkpt lat="45.39143" lon="5.89359">
        <ele>1131</ele>
        <time>2019-06-18T09:23:29Z</time>
      </trkpt>
      <trkpt lat="45.39131" lon="5.8934">
        <ele>1131</ele>
        <time>2019-06-18T09:24:52Z</time>
      </trkpt>
      <trkpt lat="45.39125" lon="5.89333">
        <ele>1131</ele>
        <time>2019-06-18T09:26:49Z</time>
      </trkpt>
      <trkpt lat="45.39122" lon="5.89342">
        <ele>1136</ele>
        <time>2019-06-18T09:28:36Z</time>
      </trkpt>
      <trkpt lat="45.39124" lon="5.89353">
        <ele>1137</ele>
        <time>2019-06-18T09:28:44Z</time>
      </trkpt>
      <trkpt lat="45.39123" lon="5.89365">
        <ele>1138</ele>
        <time>2019-06-18T09:28:56Z</time>
      </trkpt>
      <trkpt lat="45.39129" lon="5.89374">
        <ele>1139</ele>
        <time>2019-06-18T09:29:06Z</time>
      </trkpt>
      <trkpt lat="45.39134" lon="5.89401">
        <ele>1143</ele>
        <time>2019-06-18T09:29:36Z</time>
      </trkpt>
      <trkpt lat="45.39136" lon="5.89412">
        <ele>1146</ele>
        <time>2019-06-18T09:29:50Z</time>
      </trkpt>
      <trkpt lat="45.39143" lon="5.89424">
        <ele>1152</ele>
        <time>2019-06-18T09:30:28Z</time>
      </trkpt>
      <trkpt lat="45.39149" lon="5.89432">
        <ele>1155</ele>
        <time>2019-06-18T09:30:41Z</time>
      </trkpt>
      <trkpt lat="45.39148" lon="5.89443">
        <ele>1158</ele>
        <time>2019-06-18T09:31:00Z</time>
      </trkpt>
      <trkpt lat="45.39141" lon="5.89437">
        <ele>1160</ele>
        <time>2019-06-18T09:31:19Z</time>
      </trkpt>
      <trkpt lat="45.3913" lon="5.89429">
        <ele>1162</ele>
        <time>2019-06-18T09:31:40Z</time>
      </trkpt>
      <trkpt lat="45.39123" lon="5.89435">
        <ele>1176</ele>
        <time>2019-06-18T09:33:07Z</time>
      </trkpt>
      <trkpt lat="45.39096" lon="5.89407">
        <ele>1183</ele>
        <time>2019-06-18T09:33:43Z</time>
      </trkpt>
      <trkpt lat="45.39082" lon="5.89395">
        <ele>1184</ele>
        <time>2019-06-18T09:34:01Z</time>
      </trkpt>
      <trkpt lat="45.39061" lon="5.89367">
        <ele>1192</ele>
        <time>2019-06-18T09:34:45Z</time>
      </trkpt>
      <trkpt lat="45.3905" lon="5.89359">
        <ele>1195</ele>
        <time>2019-06-18T09:35:01Z</time>
      </trkpt>
      <trkpt lat="45.3905" lon="5.89373">
        <ele>1196</ele>
        <time>2019-06-18T09:35:47Z</time>
      </trkpt>
      <trkpt lat="45.39058" lon="5.89385">
        <ele>1198</ele>
        <time>2019-06-18T09:36:08Z</time>
      </trkpt>
      <trkpt lat="45.39081" lon="5.89402">
        <ele>1197</ele>
        <time>2019-06-18T09:36:28Z</time>
      </trkpt>
      <trkpt lat="45.39098" lon="5.89423">
        <ele>1201</ele>
        <time>2019-06-18T09:36:59Z</time>
      </trkpt>
      <trkpt lat="45.39112" lon="5.89438">
        <ele>1205</ele>
        <time>2019-06-18T09:37:14Z</time>
      </trkpt>
      <trkpt lat="45.39116" lon="5.89449">
        <ele>1207</ele>
        <time>2019-06-18T09:37:35Z</time>
      </trkpt>
      <trkpt lat="45.39122" lon="5.89461">
        <ele>1211</ele>
        <time>2019-06-18T09:38:00Z</time>
      </trkpt>
      <trkpt lat="45.39133" lon="5.8947">
        <ele>1214</ele>
        <time>2019-06-18T09:38:26Z</time>
      </trkpt>
      <trkpt lat="45.39138" lon="5.8947">
        <ele>1220</ele>
        <time>2019-06-18T09:40:27Z</time>
      </trkpt>
      <trkpt lat="45.39147" lon="5.89477">
        <ele>1226</ele>
        <time>2019-06-18T09:41:26Z</time>
      </trkpt>
      <trkpt lat="45.39148" lon="5.89489">
        <ele>1231</ele>
        <time>2019-06-18T09:41:59Z</time>
      </trkpt>
      <trkpt lat="45.39153" lon="5.895">
        <ele>1234</ele>
        <time>2019-06-18T09:43:08Z</time>
      </trkpt>
      <trkpt lat="45.39161" lon="5.89515">
        <ele>1234</ele>
        <time>2019-06-18T09:43:53Z</time>
      </trkpt>
      <trkpt lat="45.39168" lon="5.89526">
        <ele>1233</ele>
        <time>2019-06-18T09:44:11Z</time>
      </trkpt>
      <trkpt lat="45.39179" lon="5.8953">
        <ele>1232</ele>
        <time>2019-06-18T09:44:24Z</time>
      </trkpt>
      <trkpt lat="45.39191" lon="5.89527">
        <ele>1231</ele>
        <time>2019-06-18T09:44:36Z</time>
      </trkpt>
      <trkpt lat="45.39207" lon="5.8953">
        <ele>1228</ele>
        <time>2019-06-18T09:44:59Z</time>
      </trkpt>
      <trkpt lat="45.3922" lon="5.89524">
        <ele>1226</ele>
        <time>2019-06-18T09:45:27Z</time>
      </trkpt>
      <trkpt lat="45.39253" lon="5.89553">
        <ele>1231</ele>
        <time>2019-06-18T09:47:00Z</time>
      </trkpt>
      <trkpt lat="45.39253" lon="5.8957">
        <ele>1235</ele>
        <time>2019-06-18T09:47:26Z</time>
      </trkpt>
      <trkpt lat="45.39265" lon="5.89583">
        <ele>1235</ele>
        <time>2019-06-18T09:47:37Z</time>
      </trkpt>
      <trkpt lat="45.39268" lon="5.89593">
        <ele>1235</ele>
        <time>2019-06-18T09:47:45Z</time>
      </trkpt>
      <trkpt lat="45.39271" lon="5.89606">
        <ele>1236</ele>
        <time>2019-06-18T09:47:56Z</time>
      </trkpt>
      <trkpt lat="45.39271" lon="5.89616">
        <ele>1237</ele>
        <time>2019-06-18T09:48:09Z</time>
      </trkpt>
      <trkpt lat="45.39279" lon="5.89626">
        <ele>1238</ele>
        <time>2019-06-18T09:48:37Z</time>
      </trkpt>
      <trkpt lat="45.39286" lon="5.89626">
        <ele>1244</ele>
        <time>2019-06-18T09:49:39Z</time>
      </trkpt>
      <trkpt lat="45.39281" lon="5.89616">
        <ele>1249</ele>
        <time>2019-06-18T09:50:08Z</time>
      </trkpt>
      <trkpt lat="45.39255" lon="5.89615">
        <ele>1258</ele>
        <time>2019-06-18T09:51:29Z</time>
      </trkpt>
      <trkpt lat="45.39223" lon="5.89612">
        <ele>1264</ele>
        <time>2019-06-18T09:52:03Z</time>
      </trkpt>
      <trkpt lat="45.3923" lon="5.89597">
        <ele>1271</ele>
        <time>2019-06-18T09:52:55Z</time>
      </trkpt>
      <trkpt lat="45.39228" lon="5.89596">
        <ele>1275</ele>
        <time>2019-06-18T09:53:40Z</time>
      </trkpt>
      <trkpt lat="45.39204" lon="5.89592">
        <ele>1276</ele>
        <time>2019-06-18T09:53:51Z</time>
      </trkpt>
      <trkpt lat="45.39201" lon="5.89592">
        <ele>1280</ele>
        <time>2019-06-18T09:54:19Z</time>
      </trkpt>
      <trkpt lat="45.39211" lon="5.89593">
        <ele>1282</ele>
        <time>2019-06-18T09:54:27Z</time>
      </trkpt>
      <trkpt lat="45.39224" lon="5.89592">
        <ele>1284</ele>
        <time>2019-06-18T09:54:36Z</time>
      </trkpt>
      <trkpt lat="45.39239" lon="5.89585">
        <ele>1291</ele>
        <time>2019-06-18T09:55:10Z</time>
      </trkpt>
      <trkpt lat="45.39238" lon="5.89579">
        <ele>1305</ele>
        <time>2019-06-18T09:56:26Z</time>
      </trkpt>
      <trkpt lat="45.39231" lon="5.8957">
        <ele>1311</ele>
        <time>2019-06-18T09:57:00Z</time>
      </trkpt>
      <trkpt lat="45.39226" lon="5.8956">
        <ele>1319</ele>
        <time>2019-06-18T09:57:49Z</time>
      </trkpt>
      <trkpt lat="45.39219" lon="5.89559">
        <ele>1323</ele>
        <time>2019-06-18T09:59:06Z</time>
      </trkpt>
      <trkpt lat="45.39208" lon="5.89564">
        <ele>1329</ele>
        <time>2019-06-18T09:59:44Z</time>
      </trkpt>
      <trkpt lat="45.39201" lon="5.89562">
        <ele>1333</ele>
        <time>2019-06-18T10:00:06Z</time>
      </trkpt>
      <trkpt lat="45.39194" lon="5.8957">
        <ele>1344</ele>
        <time>2019-06-18T10:01:28Z</time>
      </trkpt>
      <trkpt lat="45.39184" lon="5.89567">
        <ele>1349</ele>
        <time>2019-06-18T10:02:15Z</time>
      </trkpt>
      <trkpt lat="45.39172" lon="5.89563">
        <ele>1353</ele>
        <time>2019-06-18T10:02:39Z</time>
      </trkpt>
      <trkpt lat="45.39166" lon="5.89575">
        <ele>1358</ele>
        <time>2019-06-18T10:03:09Z</time>
      </trkpt>
      <trkpt lat="45.39171" lon="5.89587">
        <ele>1362</ele>
        <time>2019-06-18T10:03:32Z</time>
      </trkpt>
      <trkpt lat="45.39173" lon="5.89598">
        <ele>1372</ele>
        <time>2019-06-18T10:04:22Z</time>
      </trkpt>
      <trkpt lat="45.39163" lon="5.89599">
        <ele>1378</ele>
        <time>2019-06-18T10:04:54Z</time>
      </trkpt>
      <trkpt lat="45.39155" lon="5.89591">
        <ele>1381</ele>
        <time>2019-06-18T10:05:09Z</time>
      </trkpt>
      <trkpt lat="45.39147" lon="5.8959">
        <ele>1385</ele>
        <time>2019-06-18T10:05:48Z</time>
      </trkpt>
      <trkpt lat="45.39138" lon="5.89596">
        <ele>1389</ele>
        <time>2019-06-18T10:06:31Z</time>
      </trkpt>
      <trkpt lat="45.39128" lon="5.89595">
        <ele>1394</ele>
        <time>2019-06-18T10:06:55Z</time>
      </trkpt>
      <trkpt lat="45.39132" lon="5.8961">
        <ele>1399</ele>
        <time>2019-06-18T10:07:34Z</time>
      </trkpt>
      <trkpt lat="45.39123" lon="5.89605">
        <ele>1404</ele>
        <time>2019-06-18T10:08:08Z</time>
      </trkpt>
      <trkpt lat="45.39107" lon="5.89604">
        <ele>1404</ele>
        <time>2019-06-18T10:08:35Z</time>
      </trkpt>
      <trkpt lat="45.391" lon="5.89607">
        <ele>1403</ele>
        <time>2019-06-18T10:08:51Z</time>
      </trkpt>
      <trkpt lat="45.39092" lon="5.89611">
        <ele>1404</ele>
        <time>2019-06-18T10:09:17Z</time>
      </trkpt>
      <trkpt lat="45.39083" lon="5.89615">
        <ele>1403</ele>
        <time>2019-06-18T10:10:04Z</time>
      </trkpt>
      <trkpt lat="45.39075" lon="5.89628">
        <ele>1404</ele>
        <time>2019-06-18T10:10:54Z</time>
      </trkpt>
      <trkpt lat="45.39075" lon="5.89641">
        <ele>1406</ele>
        <time>2019-06-18T10:11:12Z</time>
      </trkpt>
      <trkpt lat="45.39069" lon="5.89645">
        <ele>1404</ele>
        <time>2019-06-18T10:11:25Z</time>
      </trkpt>
      <trkpt lat="45.39063" lon="5.89653">
        <ele>1403</ele>
        <time>2019-06-18T10:11:32Z</time>
      </trkpt>
      <trkpt lat="45.39067" lon="5.89682">
        <ele>1406</ele>
        <time>2019-06-18T10:12:02Z</time>
      </trkpt>
      <trkpt lat="45.39068" lon="5.89692">
        <ele>1408</ele>
        <time>2019-06-18T10:12:13Z</time>
      </trkpt>
      <trkpt lat="45.39066" lon="5.89703">
        <ele>1409</ele>
        <time>2019-06-18T10:12:25Z</time>
      </trkpt>
      <trkpt lat="45.39054" lon="5.89708">
        <ele>1409</ele>
        <time>2019-06-18T10:12:44Z</time>
      </trkpt>
      <trkpt lat="45.39061" lon="5.89715">
        <ele>1411</ele>
        <time>2019-06-18T10:13:25Z</time>
      </trkpt>
      <trkpt lat="45.39062" lon="5.89729">
        <ele>1414</ele>
        <time>2019-06-18T10:13:39Z</time>
      </trkpt>
      <trkpt lat="45.3906" lon="5.89741">
        <ele>1417</ele>
        <time>2019-06-18T10:14:08Z</time>
      </trkpt>
      <trkpt lat="45.3907" lon="5.89751">
        <ele>1423</ele>
        <time>2019-06-18T10:14:39Z</time>
      </trkpt>
      <trkpt lat="45.39077" lon="5.8976">
        <ele>1426</ele>
        <time>2019-06-18T10:15:47Z</time>
      </trkpt>
      <trkpt lat="45.39085" lon="5.89768">
        <ele>1428</ele>
        <time>2019-06-18T10:16:01Z</time>
      </trkpt>
      <trkpt lat="45.3909" lon="5.89792">
        <ele>1434</ele>
        <time>2019-06-18T10:16:29Z</time>
      </trkpt>
      <trkpt lat="45.39084" lon="5.89801">
        <ele>1438</ele>
        <time>2019-06-18T10:16:50Z</time>
      </trkpt>
      <trkpt lat="45.39075" lon="5.89823">
        <ele>1447</ele>
        <time>2019-06-18T10:17:33Z</time>
      </trkpt>
      <trkpt lat="45.39072" lon="5.89835">
        <ele>1451</ele>
        <time>2019-06-18T10:17:50Z</time>
      </trkpt>
      <trkpt lat="45.39086" lon="5.89841">
        <ele>1451</ele>
        <time>2019-06-18T10:18:19Z</time>
      </trkpt>
      <trkpt lat="45.39089" lon="5.89837">
        <ele>1452</ele>
        <time>2019-06-18T10:19:01Z</time>
      </trkpt>
      <trkpt lat="45.39098" lon="5.89845">
        <ele>1457</ele>
        <time>2019-06-18T10:19:34Z</time>
      </trkpt>
      <trkpt lat="45.39104" lon="5.89848">
        <ele>1458</ele>
        <time>2019-06-18T10:19:45Z</time>
      </trkpt>
      <trkpt lat="45.3912" lon="5.89851">
        <ele>1460</ele>
        <time>2019-06-18T10:19:57Z</time>
      </trkpt>
      <trkpt lat="45.39129" lon="5.89848">
        <ele>1462</ele>
        <time>2019-06-18T10:20:09Z</time>
      </trkpt>
      <trkpt lat="45.39138" lon="5.89838">
        <ele>1464</ele>
        <time>2019-06-18T10:20:28Z</time>
      </trkpt>
      <trkpt lat="45.39148" lon="5.8983">
        <ele>1464</ele>
        <time>2019-06-18T10:20:50Z</time>
      </trkpt>
      <trkpt lat="45.39171" lon="5.89821">
        <ele>1470</ele>
        <time>2019-06-18T10:21:26Z</time>
      </trkpt>
      <trkpt lat="45.39178" lon="5.89827">
        <ele>1471</ele>
        <time>2019-06-18T10:21:47Z</time>
      </trkpt>
      <trkpt lat="45.39184" lon="5.89838">
        <ele>1478</ele>
        <time>2019-06-18T10:22:18Z</time>
      </trkpt>
      <trkpt lat="45.39179" lon="5.89866">
        <ele>1489</ele>
        <time>2019-06-18T10:23:32Z</time>
      </trkpt>
      <trkpt lat="45.39175" lon="5.8988">
        <ele>1492</ele>
        <time>2019-06-18T10:23:48Z</time>
      </trkpt>
      <trkpt lat="45.39185" lon="5.89877">
        <ele>1495</ele>
        <time>2019-06-18T10:25:31Z</time>
      </trkpt>
      <trkpt lat="45.392" lon="5.89869">
        <ele>1494</ele>
        <time>2019-06-18T10:25:45Z</time>
      </trkpt>
      <trkpt lat="45.39213" lon="5.89862">
        <ele>1492</ele>
        <time>2019-06-18T10:25:56Z</time>
      </trkpt>
      <trkpt lat="45.39225" lon="5.89863">
        <ele>1493</ele>
        <time>2019-06-18T10:26:08Z</time>
      </trkpt>
      <trkpt lat="45.39232" lon="5.89867">
        <ele>1494</ele>
        <time>2019-06-18T10:26:16Z</time>
      </trkpt>
      <trkpt lat="45.39253" lon="5.89869">
        <ele>1494</ele>
        <time>2019-06-18T10:26:34Z</time>
      </trkpt>
      <trkpt lat="45.3929" lon="5.8987">
        <ele>1493</ele>
        <time>2019-06-18T10:27:05Z</time>
      </trkpt>
      <trkpt lat="45.39299" lon="5.89871">
        <ele>1493</ele>
        <time>2019-06-18T10:27:13Z</time>
      </trkpt>
      <trkpt lat="45.39307" lon="5.89873">
        <ele>1494</ele>
        <time>2019-06-18T10:27:21Z</time>
      </trkpt>
      <trkpt lat="45.39315" lon="5.89872">
        <ele>1493</ele>
        <time>2019-06-18T10:27:29Z</time>
      </trkpt>
      <trkpt lat="45.3933" lon="5.89879">
        <ele>1492</ele>
        <time>2019-06-18T10:27:41Z</time>
      </trkpt>
      <trkpt lat="45.39337" lon="5.89883">
        <ele>1494</ele>
        <time>2019-06-18T10:27:48Z</time>
      </trkpt>
      <trkpt lat="45.3935" lon="5.89895">
        <ele>1494</ele>
        <time>2019-06-18T10:28:04Z</time>
      </trkpt>
      <trkpt lat="45.39356" lon="5.89905">
        <ele>1499</ele>
        <time>2019-06-18T10:38:43Z</time>
      </trkpt>
      <trkpt lat="45.39367" lon="5.89925">
        <ele>1499</ele>
        <time>2019-06-18T10:39:01Z</time>
      </trkpt>
      <trkpt lat="45.39375" lon="5.8994">
        <ele>1498</ele>
        <time>2019-06-18T10:39:12Z</time>
      </trkpt>
      <trkpt lat="45.39383" lon="5.89946">
        <ele>1498</ele>
        <time>2019-06-18T10:39:20Z</time>
      </trkpt>
      <trkpt lat="45.39402" lon="5.89968">
        <ele>1497</ele>
        <time>2019-06-18T10:39:44Z</time>
      </trkpt>
      <trkpt lat="45.39407" lon="5.89978">
        <ele>1497</ele>
        <time>2019-06-18T10:39:53Z</time>
      </trkpt>
      <trkpt lat="45.39411" lon="5.89988">
        <ele>1496</ele>
        <time>2019-06-18T10:40:15Z</time>
      </trkpt>
      <trkpt lat="45.39414" lon="5.90001">
        <ele>1496</ele>
        <time>2019-06-18T10:40:26Z</time>
      </trkpt>
      <trkpt lat="45.39409" lon="5.9001">
        <ele>1499</ele>
        <time>2019-06-18T10:40:55Z</time>
      </trkpt>
      <trkpt lat="45.39401" lon="5.90009">
        <ele>1501</ele>
        <time>2019-06-18T10:41:07Z</time>
      </trkpt>
      <trkpt lat="45.39393" lon="5.90011">
        <ele>1504</ele>
        <time>2019-06-18T10:41:18Z</time>
      </trkpt>
      <trkpt lat="45.39387" lon="5.90017">
        <ele>1507</ele>
        <time>2019-06-18T10:41:30Z</time>
      </trkpt>
      <trkpt lat="45.39377" lon="5.90022">
        <ele>1509</ele>
        <time>2019-06-18T10:41:51Z</time>
      </trkpt>
      <trkpt lat="45.39364" lon="5.90019">
        <ele>1513</ele>
        <time>2019-06-18T10:42:14Z</time>
      </trkpt>
      <trkpt lat="45.39364" lon="5.9003">
        <ele>1515</ele>
        <time>2019-06-18T10:42:30Z</time>
      </trkpt>
      <trkpt lat="45.39364" lon="5.90042">
        <ele>1515</ele>
        <time>2019-06-18T10:42:37Z</time>
      </trkpt>
      <trkpt lat="45.39364" lon="5.9007">
        <ele>1517</ele>
        <time>2019-06-18T10:42:58Z</time>
      </trkpt>
      <trkpt lat="45.39362" lon="5.90081">
        <ele>1518</ele>
        <time>2019-06-18T10:43:08Z</time>
      </trkpt>
      <trkpt lat="45.39367" lon="5.90133">
        <ele>1520</ele>
        <time>2019-06-18T10:43:44Z</time>
      </trkpt>
      <trkpt lat="45.39366" lon="5.90148">
        <ele>1520</ele>
        <time>2019-06-18T10:43:56Z</time>
      </trkpt>
      <trkpt lat="45.39365" lon="5.90187">
        <ele>1525</ele>
        <time>2019-06-18T10:44:30Z</time>
      </trkpt>
      <trkpt lat="45.39354" lon="5.90212">
        <ele>1527</ele>
        <time>2019-06-18T10:44:54Z</time>
      </trkpt>
      <trkpt lat="45.39344" lon="5.90218">
        <ele>1529</ele>
        <time>2019-06-18T10:45:06Z</time>
      </trkpt>
      <trkpt lat="45.39321" lon="5.90232">
        <ele>1526</ele>
        <time>2019-06-18T10:45:31Z</time>
      </trkpt>
      <trkpt lat="45.39317" lon="5.90241">
        <ele>1527</ele>
        <time>2019-06-18T10:46:03Z</time>
      </trkpt>
      <trkpt lat="45.39319" lon="5.90256">
        <ele>1527</ele>
        <time>2019-06-18T10:46:47Z</time>
      </trkpt>
      <trkpt lat="45.39327" lon="5.90266">
        <ele>1528</ele>
        <time>2019-06-18T10:47:05Z</time>
      </trkpt>
      <trkpt lat="45.39329" lon="5.90297">
        <ele>1530</ele>
        <time>2019-06-18T10:47:29Z</time>
      </trkpt>
      <trkpt lat="45.39339" lon="5.90325">
        <ele>1530</ele>
        <time>2019-06-18T10:47:45Z</time>
      </trkpt>
      <trkpt lat="45.3935" lon="5.9036">
        <ele>1534</ele>
        <time>2019-06-18T10:48:13Z</time>
      </trkpt>
      <trkpt lat="45.39361" lon="5.90378">
        <ele>1536</ele>
        <time>2019-06-18T10:48:31Z</time>
      </trkpt>
      <trkpt lat="45.39371" lon="5.90386">
        <ele>1540</ele>
        <time>2019-06-18T10:48:49Z</time>
      </trkpt>
      <trkpt lat="45.39388" lon="5.90391">
        <ele>1537</ele>
        <time>2019-06-18T10:49:11Z</time>
      </trkpt>
      <trkpt lat="45.39394" lon="5.904">
        <ele>1535</ele>
        <time>2019-06-18T10:49:28Z</time>
      </trkpt>
      <trkpt lat="45.3941" lon="5.90409">
        <ele>1532</ele>
        <time>2019-06-18T10:49:46Z</time>
      </trkpt>
      <trkpt lat="45.39418" lon="5.90408">
        <ele>1531</ele>
        <time>2019-06-18T10:49:55Z</time>
      </trkpt>
      <trkpt lat="45.39425" lon="5.90415">
        <ele>1531</ele>
        <time>2019-06-18T10:50:06Z</time>
      </trkpt>
      <trkpt lat="45.3943" lon="5.90422">
        <ele>1532</ele>
        <time>2019-06-18T10:50:14Z</time>
      </trkpt>
      <trkpt lat="45.39445" lon="5.9045">
        <ele>1535</ele>
        <time>2019-06-18T10:50:44Z</time>
      </trkpt>
      <trkpt lat="45.39451" lon="5.90461">
        <ele>1536</ele>
        <time>2019-06-18T10:50:55Z</time>
      </trkpt>
      <trkpt lat="45.39454" lon="5.90479">
        <ele>1538</ele>
        <time>2019-06-18T10:51:10Z</time>
      </trkpt>
      <trkpt lat="45.3948" lon="5.90508">
        <ele>1538</ele>
        <time>2019-06-18T10:51:44Z</time>
      </trkpt>
      <trkpt lat="45.39488" lon="5.90518">
        <ele>1538</ele>
        <time>2019-06-18T10:51:57Z</time>
      </trkpt>
      <trkpt lat="45.39494" lon="5.90534">
        <ele>1538</ele>
        <time>2019-06-18T10:52:08Z</time>
      </trkpt>
      <trkpt lat="45.39495" lon="5.90552">
        <ele>1539</ele>
        <time>2019-06-18T10:52:18Z</time>
      </trkpt>
      <trkpt lat="45.39503" lon="5.90588">
        <ele>1543</ele>
        <time>2019-06-18T10:52:48Z</time>
      </trkpt>
      <trkpt lat="45.39509" lon="5.90598">
        <ele>1543</ele>
        <time>2019-06-18T10:52:59Z</time>
      </trkpt>
      <trkpt lat="45.39517" lon="5.906">
        <ele>1542</ele>
        <time>2019-06-18T10:53:08Z</time>
      </trkpt>
      <trkpt lat="45.39533" lon="5.90615">
        <ele>1542</ele>
        <time>2019-06-18T10:53:23Z</time>
      </trkpt>
      <trkpt lat="45.39553" lon="5.9065">
        <ele>1544</ele>
        <time>2019-06-18T10:53:54Z</time>
      </trkpt>
      <trkpt lat="45.3956" lon="5.90665">
        <ele>1545</ele>
        <time>2019-06-18T10:54:06Z</time>
      </trkpt>
      <trkpt lat="45.39573" lon="5.90684">
        <ele>1546</ele>
        <time>2019-06-18T10:54:25Z</time>
      </trkpt>
      <trkpt lat="45.39579" lon="5.90698">
        <ele>1547</ele>
        <time>2019-06-18T10:54:36Z</time>
      </trkpt>
      <trkpt lat="45.39605" lon="5.90721">
        <ele>1546</ele>
        <time>2019-06-18T10:55:03Z</time>
      </trkpt>
      <trkpt lat="45.39614" lon="5.90726">
        <ele>1545</ele>
        <time>2019-06-18T10:55:12Z</time>
      </trkpt>
      <trkpt lat="45.39621" lon="5.90737">
        <ele>1546</ele>
        <time>2019-06-18T10:55:21Z</time>
      </trkpt>
      <trkpt lat="45.39631" lon="5.90746">
        <ele>1547</ele>
        <time>2019-06-18T10:55:32Z</time>
      </trkpt>
      <trkpt lat="45.3964" lon="5.90747">
        <ele>1545</ele>
        <time>2019-06-18T10:55:42Z</time>
      </trkpt>
      <trkpt lat="45.3967" lon="5.90738">
        <ele>1539</ele>
        <time>2019-06-18T10:56:17Z</time>
      </trkpt>
      <trkpt lat="45.39679" lon="5.90734">
        <ele>1536</ele>
        <time>2019-06-18T10:56:28Z</time>
      </trkpt>
      <trkpt lat="45.3969" lon="5.90734">
        <ele>1534</ele>
        <time>2019-06-18T10:56:47Z</time>
      </trkpt>
      <trkpt lat="45.39696" lon="5.90728">
        <ele>1533</ele>
        <time>2019-06-18T10:58:31Z</time>
      </trkpt>
      <trkpt lat="45.39704" lon="5.90725">
        <ele>1531</ele>
        <time>2019-06-18T10:58:50Z</time>
      </trkpt>
      <trkpt lat="45.39713" lon="5.90726">
        <ele>1529</ele>
        <time>2019-06-18T10:58:58Z</time>
      </trkpt>
      <trkpt lat="45.39722" lon="5.90728">
        <ele>1529</ele>
        <time>2019-06-18T10:59:05Z</time>
      </trkpt>
      <trkpt lat="45.39732" lon="5.90736">
        <ele>1530</ele>
        <time>2019-06-18T10:59:17Z</time>
      </trkpt>
      <trkpt lat="45.39741" lon="5.90736">
        <ele>1530</ele>
        <time>2019-06-18T10:59:29Z</time>
      </trkpt>
      <trkpt lat="45.39748" lon="5.90731">
        <ele>1528</ele>
        <time>2019-06-18T10:59:37Z</time>
      </trkpt>
      <trkpt lat="45.39756" lon="5.90734">
        <ele>1527</ele>
        <time>2019-06-18T10:59:45Z</time>
      </trkpt>
      <trkpt lat="45.39771" lon="5.90734">
        <ele>1524</ele>
        <time>2019-06-18T10:59:58Z</time>
      </trkpt>
      <trkpt lat="45.39795" lon="5.90737">
        <ele>1522</ele>
        <time>2019-06-18T11:00:20Z</time>
      </trkpt>
      <trkpt lat="45.39817" lon="5.90735">
        <ele>1516</ele>
        <time>2019-06-18T11:00:48Z</time>
      </trkpt>
      <trkpt lat="45.39829" lon="5.90731">
        <ele>1516</ele>
        <time>2019-06-18T11:00:58Z</time>
      </trkpt>
      <trkpt lat="45.3984" lon="5.90731">
        <ele>1516</ele>
        <time>2019-06-18T11:01:08Z</time>
      </trkpt>
      <trkpt lat="45.39848" lon="5.90734">
        <ele>1516</ele>
        <time>2019-06-18T11:01:14Z</time>
      </trkpt>
      <trkpt lat="45.39864" lon="5.90749">
        <ele>1517</ele>
        <time>2019-06-18T11:01:36Z</time>
      </trkpt>
      <trkpt lat="45.3988" lon="5.90752">
        <ele>1517</ele>
        <time>2019-06-18T11:01:50Z</time>
      </trkpt>
      <trkpt lat="45.39904" lon="5.90747">
        <ele>1519</ele>
        <time>2019-06-18T11:02:13Z</time>
      </trkpt>
      <trkpt lat="45.39912" lon="5.90747">
        <ele>1520</ele>
        <time>2019-06-18T11:02:20Z</time>
      </trkpt>
      <trkpt lat="45.39922" lon="5.90752">
        <ele>1520</ele>
        <time>2019-06-18T11:02:29Z</time>
      </trkpt>
      <trkpt lat="45.39954" lon="5.90753">
        <ele>1516</ele>
        <time>2019-06-18T11:03:03Z</time>
      </trkpt>
      <trkpt lat="45.39985" lon="5.90755">
        <ele>1509</ele>
        <time>2019-06-18T11:03:38Z</time>
      </trkpt>
      <trkpt lat="45.40016" lon="5.90767">
        <ele>1506</ele>
        <time>2019-06-18T11:04:07Z</time>
      </trkpt>
      <trkpt lat="45.40031" lon="5.90775">
        <ele>1506</ele>
        <time>2019-06-18T11:04:23Z</time>
      </trkpt>
      <trkpt lat="45.40065" lon="5.90778">
        <ele>1499</ele>
        <time>2019-06-18T11:04:59Z</time>
      </trkpt>
      <trkpt lat="45.40094" lon="5.90793">
        <ele>1495</ele>
        <time>2019-06-18T11:05:28Z</time>
      </trkpt>
      <trkpt lat="45.40103" lon="5.90807">
        <ele>1493</ele>
        <time>2019-06-18T11:05:42Z</time>
      </trkpt>
      <trkpt lat="45.40109" lon="5.90816">
        <ele>1494</ele>
        <time>2019-06-18T11:05:50Z</time>
      </trkpt>
      <trkpt lat="45.40145" lon="5.90838">
        <ele>1491</ele>
        <time>2019-06-18T11:06:27Z</time>
      </trkpt>
      <trkpt lat="45.40152" lon="5.90843">
        <ele>1490</ele>
        <time>2019-06-18T11:06:36Z</time>
      </trkpt>
      <trkpt lat="45.4016" lon="5.90847">
        <ele>1490</ele>
        <time>2019-06-18T11:06:46Z</time>
      </trkpt>
      <trkpt lat="45.4018" lon="5.90855">
        <ele>1487</ele>
        <time>2019-06-18T11:07:06Z</time>
      </trkpt>
      <trkpt lat="45.4019" lon="5.90862">
        <ele>1486</ele>
        <time>2019-06-18T11:07:17Z</time>
      </trkpt>
      <trkpt lat="45.40225" lon="5.90878">
        <ele>1483</ele>
        <time>2019-06-18T11:08:00Z</time>
      </trkpt>
      <trkpt lat="45.40237" lon="5.90885">
        <ele>1482</ele>
        <time>2019-06-18T11:08:11Z</time>
      </trkpt>
      <trkpt lat="45.40247" lon="5.90898">
        <ele>1483</ele>
        <time>2019-06-18T11:08:21Z</time>
      </trkpt>
      <trkpt lat="45.40258" lon="5.90905">
        <ele>1484</ele>
        <time>2019-06-18T11:08:32Z</time>
      </trkpt>
      <trkpt lat="45.40264" lon="5.90912">
        <ele>1484</ele>
        <time>2019-06-18T11:08:38Z</time>
      </trkpt>
      <trkpt lat="45.40274" lon="5.90922">
        <ele>1485</ele>
        <time>2019-06-18T11:08:49Z</time>
      </trkpt>
      <trkpt lat="45.40299" lon="5.90944">
        <ele>1484</ele>
        <time>2019-06-18T11:09:15Z</time>
      </trkpt>
      <trkpt lat="45.4031" lon="5.90948">
        <ele>1484</ele>
        <time>2019-06-18T11:09:25Z</time>
      </trkpt>
      <trkpt lat="45.40318" lon="5.90954">
        <ele>1484</ele>
        <time>2019-06-18T11:09:35Z</time>
      </trkpt>
      <trkpt lat="45.40328" lon="5.9096">
        <ele>1481</ele>
        <time>2019-06-18T11:09:43Z</time>
      </trkpt>
      <trkpt lat="45.40341" lon="5.90965">
        <ele>1485</ele>
        <time>2019-06-18T11:09:56Z</time>
      </trkpt>
      <trkpt lat="45.40347" lon="5.9097">
        <ele>1484</ele>
        <time>2019-06-18T11:10:01Z</time>
      </trkpt>
      <trkpt lat="45.40367" lon="5.90989">
        <ele>1484</ele>
        <time>2019-06-18T11:10:20Z</time>
      </trkpt>
      <trkpt lat="45.4038" lon="5.90995">
        <ele>1486</ele>
        <time>2019-06-18T11:10:32Z</time>
      </trkpt>
      <trkpt lat="45.40397" lon="5.91014">
        <ele>1488</ele>
        <time>2019-06-18T11:10:53Z</time>
      </trkpt>
      <trkpt lat="45.40406" lon="5.91021">
        <ele>1486</ele>
        <time>2019-06-18T11:11:06Z</time>
      </trkpt>
      <trkpt lat="45.40431" lon="5.9102">
        <ele>1481</ele>
        <time>2019-06-18T11:11:30Z</time>
      </trkpt>
      <trkpt lat="45.4044" lon="5.91011">
        <ele>1476</ele>
        <time>2019-06-18T11:12:07Z</time>
      </trkpt>
      <trkpt lat="45.40456" lon="5.90997">
        <ele>1469</ele>
        <time>2019-06-18T11:12:41Z</time>
      </trkpt>
      <trkpt lat="45.40466" lon="5.90994">
        <ele>1465</ele>
        <time>2019-06-18T11:13:00Z</time>
      </trkpt>
      <trkpt lat="45.40476" lon="5.90996">
        <ele>1463</ele>
        <time>2019-06-18T11:13:09Z</time>
      </trkpt>
      <trkpt lat="45.40495" lon="5.90966">
        <ele>1454</ele>
        <time>2019-06-18T11:13:52Z</time>
      </trkpt>
      <trkpt lat="45.405" lon="5.90953">
        <ele>1454</ele>
        <time>2019-06-18T11:14:02Z</time>
      </trkpt>
      <trkpt lat="45.40506" lon="5.90947">
        <ele>1453</ele>
        <time>2019-06-18T11:14:19Z</time>
      </trkpt>
      <trkpt lat="45.40506" lon="5.90935">
        <ele>1451</ele>
        <time>2019-06-18T11:14:40Z</time>
      </trkpt>
      <trkpt lat="45.40513" lon="5.90931">
        <ele>1451</ele>
        <time>2019-06-18T11:15:39Z</time>
      </trkpt>
      <trkpt lat="45.40519" lon="5.9095">
        <ele>1451</ele>
        <time>2019-06-18T11:53:20Z</time>
      </trkpt>
      <trkpt lat="45.40525" lon="5.90957">
        <ele>1451</ele>
        <time>2019-06-18T11:53:28Z</time>
      </trkpt>
      <trkpt lat="45.40543" lon="5.9098">
        <ele>1453</ele>
        <time>2019-06-18T11:53:46Z</time>
      </trkpt>
      <trkpt lat="45.40549" lon="5.90996">
        <ele>1453</ele>
        <time>2019-06-18T11:54:00Z</time>
      </trkpt>
      <trkpt lat="45.40559" lon="5.91008">
        <ele>1454</ele>
        <time>2019-06-18T11:54:14Z</time>
      </trkpt>
      <trkpt lat="45.40569" lon="5.91011">
        <ele>1455</ele>
        <time>2019-06-18T11:54:24Z</time>
      </trkpt>
      <trkpt lat="45.40587" lon="5.91029">
        <ele>1457</ele>
        <time>2019-06-18T11:54:55Z</time>
      </trkpt>
      <trkpt lat="45.40597" lon="5.91037">
        <ele>1459</ele>
        <time>2019-06-18T11:55:08Z</time>
      </trkpt>
      <trkpt lat="45.40601" lon="5.91055">
        <ele>1458</ele>
        <time>2019-06-18T11:55:22Z</time>
      </trkpt>
      <trkpt lat="45.40612" lon="5.91072">
        <ele>1462</ele>
        <time>2019-06-18T11:55:54Z</time>
      </trkpt>
      <trkpt lat="45.4062" lon="5.91072">
        <ele>1465</ele>
        <time>2019-06-18T11:56:06Z</time>
      </trkpt>
      <trkpt lat="45.40634" lon="5.91076">
        <ele>1465</ele>
        <time>2019-06-18T11:56:17Z</time>
      </trkpt>
      <trkpt lat="45.40649" lon="5.91081">
        <ele>1467</ele>
        <time>2019-06-18T11:56:33Z</time>
      </trkpt>
      <trkpt lat="45.40656" lon="5.91105">
        <ele>1472</ele>
        <time>2019-06-18T11:57:06Z</time>
      </trkpt>
      <trkpt lat="45.40662" lon="5.91112">
        <ele>1473</ele>
        <time>2019-06-18T11:57:13Z</time>
      </trkpt>
      <trkpt lat="45.40666" lon="5.91123">
        <ele>1473</ele>
        <time>2019-06-18T11:57:22Z</time>
      </trkpt>
      <trkpt lat="45.40672" lon="5.91132">
        <ele>1474</ele>
        <time>2019-06-18T11:57:30Z</time>
      </trkpt>
      <trkpt lat="45.40674" lon="5.91144">
        <ele>1475</ele>
        <time>2019-06-18T11:57:41Z</time>
      </trkpt>
      <trkpt lat="45.40676" lon="5.91167">
        <ele>1477</ele>
        <time>2019-06-18T11:58:03Z</time>
      </trkpt>
      <trkpt lat="45.40671" lon="5.91175">
        <ele>1478</ele>
        <time>2019-06-18T11:58:09Z</time>
      </trkpt>
      <trkpt lat="45.40685" lon="5.91215">
        <ele>1481</ele>
        <time>2019-06-18T11:58:49Z</time>
      </trkpt>
      <trkpt lat="45.40712" lon="5.91246">
        <ele>1486</ele>
        <time>2019-06-18T11:59:16Z</time>
      </trkpt>
      <trkpt lat="45.40716" lon="5.91256">
        <ele>1489</ele>
        <time>2019-06-18T11:59:34Z</time>
      </trkpt>
      <trkpt lat="45.40734" lon="5.91263">
        <ele>1491</ele>
        <time>2019-06-18T11:59:45Z</time>
      </trkpt>
      <trkpt lat="45.40753" lon="5.91263">
        <ele>1495</ele>
        <time>2019-06-18T12:00:14Z</time>
      </trkpt>
      <trkpt lat="45.40752" lon="5.91281">
        <ele>1495</ele>
        <time>2019-06-18T12:00:25Z</time>
      </trkpt>
      <trkpt lat="45.40762" lon="5.91287">
        <ele>1497</ele>
        <time>2019-06-18T12:00:41Z</time>
      </trkpt>
      <trkpt lat="45.40787" lon="5.91283">
        <ele>1507</ele>
        <time>2019-06-18T12:01:23Z</time>
      </trkpt>
      <trkpt lat="45.40793" lon="5.91276">
        <ele>1508</ele>
        <time>2019-06-18T12:01:53Z</time>
      </trkpt>
      <trkpt lat="45.40801" lon="5.91288">
        <ele>1513</ele>
        <time>2019-06-18T12:02:31Z</time>
      </trkpt>
      <trkpt lat="45.40809" lon="5.91305">
        <ele>1513</ele>
        <time>2019-06-18T12:02:47Z</time>
      </trkpt>
      <trkpt lat="45.40817" lon="5.91299">
        <ele>1515</ele>
        <time>2019-06-18T12:03:26Z</time>
      </trkpt>
      <trkpt lat="45.40824" lon="5.91289">
        <ele>1517</ele>
        <time>2019-06-18T12:03:38Z</time>
      </trkpt>
      <trkpt lat="45.40829" lon="5.91273">
        <ele>1520</ele>
        <time>2019-06-18T12:03:57Z</time>
      </trkpt>
      <trkpt lat="45.40822" lon="5.91259">
        <ele>1520</ele>
        <time>2019-06-18T12:04:05Z</time>
      </trkpt>
      <trkpt lat="45.40846" lon="5.91268">
        <ele>1522</ele>
        <time>2019-06-18T12:04:18Z</time>
      </trkpt>
      <trkpt lat="45.40849" lon="5.91258">
        <ele>1525</ele>
        <time>2019-06-18T12:04:29Z</time>
      </trkpt>
      <trkpt lat="45.40845" lon="5.91215">
        <ele>1532</ele>
        <time>2019-06-18T12:05:09Z</time>
      </trkpt>
      <trkpt lat="45.40841" lon="5.91206">
        <ele>1533</ele>
        <time>2019-06-18T12:05:17Z</time>
      </trkpt>
      <trkpt lat="45.40842" lon="5.91195">
        <ele>1535</ele>
        <time>2019-06-18T12:05:28Z</time>
      </trkpt>
      <trkpt lat="45.40846" lon="5.91182">
        <ele>1539</ele>
        <time>2019-06-18T12:06:01Z</time>
      </trkpt>
      <trkpt lat="45.40845" lon="5.91162">
        <ele>1543</ele>
        <time>2019-06-18T12:06:29Z</time>
      </trkpt>
      <trkpt lat="45.40854" lon="5.91162">
        <ele>1555</ele>
        <time>2019-06-18T12:07:36Z</time>
      </trkpt>
      <trkpt lat="45.40862" lon="5.91165">
        <ele>1564</ele>
        <time>2019-06-18T12:08:33Z</time>
      </trkpt>
      <trkpt lat="45.40868" lon="5.91173">
        <ele>1571</ele>
        <time>2019-06-18T12:09:14Z</time>
      </trkpt>
      <trkpt lat="45.40878" lon="5.91188">
        <ele>1576</ele>
        <time>2019-06-18T12:09:46Z</time>
      </trkpt>
      <trkpt lat="45.40885" lon="5.912">
        <ele>1580</ele>
        <time>2019-06-18T12:10:09Z</time>
      </trkpt>
      <trkpt lat="45.40892" lon="5.91207">
        <ele>1583</ele>
        <time>2019-06-18T12:10:30Z</time>
      </trkpt>
      <trkpt lat="45.40961" lon="5.91238">
        <ele>1587</ele>
        <time>2019-06-18T12:10:48Z</time>
      </trkpt>
      <trkpt lat="45.40964" lon="5.91226">
        <ele>1591</ele>
        <time>2019-06-18T12:12:49Z</time>
      </trkpt>
      <trkpt lat="45.40955" lon="5.91204">
        <ele>1592</ele>
        <time>2019-06-18T12:14:14Z</time>
      </trkpt>
      <trkpt lat="45.40938" lon="5.91161">
        <ele>1591</ele>
        <time>2019-06-18T12:14:55Z</time>
      </trkpt>
      <trkpt lat="45.40923" lon="5.91143">
        <ele>1591</ele>
        <time>2019-06-18T12:15:09Z</time>
      </trkpt>
      <trkpt lat="45.4091" lon="5.91136">
        <ele>1590</ele>
        <time>2019-06-18T12:15:21Z</time>
      </trkpt>
      <trkpt lat="45.40906" lon="5.91124">
        <ele>1591</ele>
        <time>2019-06-18T12:15:34Z</time>
      </trkpt>
      <trkpt lat="45.40874" lon="5.91096">
        <ele>1591</ele>
        <time>2019-06-18T12:15:52Z</time>
      </trkpt>
      <trkpt lat="45.40889" lon="5.91076">
        <ele>1592</ele>
        <time>2019-06-18T12:16:04Z</time>
      </trkpt>
      <trkpt lat="45.4088" lon="5.91042">
        <ele>1593</ele>
        <time>2019-06-18T12:16:31Z</time>
      </trkpt>
      <trkpt lat="45.40868" lon="5.91009">
        <ele>1593</ele>
        <time>2019-06-18T12:16:59Z</time>
      </trkpt>
      <trkpt lat="45.40857" lon="5.90992">
        <ele>1594</ele>
        <time>2019-06-18T12:17:18Z</time>
      </trkpt>
      <trkpt lat="45.4085" lon="5.90986">
        <ele>1594</ele>
        <time>2019-06-18T12:17:26Z</time>
      </trkpt>
      <trkpt lat="45.40845" lon="5.90975">
        <ele>1596</ele>
        <time>2019-06-18T12:17:34Z</time>
      </trkpt>
      <trkpt lat="45.40839" lon="5.90957">
        <ele>1596</ele>
        <time>2019-06-18T12:17:47Z</time>
      </trkpt>
      <trkpt lat="45.40831" lon="5.9095">
        <ele>1597</ele>
        <time>2019-06-18T12:17:58Z</time>
      </trkpt>
      <trkpt lat="45.40824" lon="5.90938">
        <ele>1599</ele>
        <time>2019-06-18T12:18:22Z</time>
      </trkpt>
      <trkpt lat="45.4082" lon="5.90925">
        <ele>1601</ele>
        <time>2019-06-18T12:18:34Z</time>
      </trkpt>
      <trkpt lat="45.4081" lon="5.90921">
        <ele>1603</ele>
        <time>2019-06-18T12:18:55Z</time>
      </trkpt>
      <trkpt lat="45.40789" lon="5.90882">
        <ele>1604</ele>
        <time>2019-06-18T12:19:34Z</time>
      </trkpt>
      <trkpt lat="45.40784" lon="5.90872">
        <ele>1605</ele>
        <time>2019-06-18T12:19:44Z</time>
      </trkpt>
      <trkpt lat="45.40776" lon="5.90855">
        <ele>1605</ele>
        <time>2019-06-18T12:19:58Z</time>
      </trkpt>
      <trkpt lat="45.40775" lon="5.90843">
        <ele>1606</ele>
        <time>2019-06-18T12:20:14Z</time>
      </trkpt>
      <trkpt lat="45.40765" lon="5.90834">
        <ele>1606</ele>
        <time>2019-06-18T12:20:43Z</time>
      </trkpt>
      <trkpt lat="45.40757" lon="5.90822">
        <ele>1606</ele>
        <time>2019-06-18T12:20:57Z</time>
      </trkpt>
      <trkpt lat="45.40748" lon="5.90799">
        <ele>1608</ele>
        <time>2019-06-18T12:21:20Z</time>
      </trkpt>
      <trkpt lat="45.40732" lon="5.90754">
        <ele>1613</ele>
        <time>2019-06-18T12:21:59Z</time>
      </trkpt>
      <trkpt lat="45.40728" lon="5.90738">
        <ele>1614</ele>
        <time>2019-06-18T12:22:09Z</time>
      </trkpt>
      <trkpt lat="45.40725" lon="5.9072">
        <ele>1614</ele>
        <time>2019-06-18T12:22:21Z</time>
      </trkpt>
      <trkpt lat="45.4072" lon="5.90687">
        <ele>1616</ele>
        <time>2019-06-18T12:23:00Z</time>
      </trkpt>
      <trkpt lat="45.40722" lon="5.90675">
        <ele>1620</ele>
        <time>2019-06-18T12:23:17Z</time>
      </trkpt>
      <trkpt lat="45.40717" lon="5.90639">
        <ele>1623</ele>
        <time>2019-06-18T12:23:54Z</time>
      </trkpt>
      <trkpt lat="45.40719" lon="5.90615">
        <ele>1625</ele>
        <time>2019-06-18T12:24:26Z</time>
      </trkpt>
      <trkpt lat="45.40719" lon="5.90596">
        <ele>1627</ele>
        <time>2019-06-18T12:24:40Z</time>
      </trkpt>
      <trkpt lat="45.40715" lon="5.90579">
        <ele>1627</ele>
        <time>2019-06-18T12:24:52Z</time>
      </trkpt>
      <trkpt lat="45.4072" lon="5.90555">
        <ele>1631</ele>
        <time>2019-06-18T12:25:39Z</time>
      </trkpt>
      <trkpt lat="45.40721" lon="5.90543">
        <ele>1631</ele>
        <time>2019-06-18T12:25:50Z</time>
      </trkpt>
      <trkpt lat="45.40725" lon="5.90492">
        <ele>1638</ele>
        <time>2019-06-18T12:26:32Z</time>
      </trkpt>
      <trkpt lat="45.40725" lon="5.90462">
        <ele>1642</ele>
        <time>2019-06-18T12:27:05Z</time>
      </trkpt>
      <trkpt lat="45.40722" lon="5.90444">
        <ele>1643</ele>
        <time>2019-06-18T12:27:22Z</time>
      </trkpt>
      <trkpt lat="45.40724" lon="5.90431">
        <ele>1646</ele>
        <time>2019-06-18T12:27:41Z</time>
      </trkpt>
      <trkpt lat="45.4072" lon="5.90409">
        <ele>1653</ele>
        <time>2019-06-18T12:28:53Z</time>
      </trkpt>
      <trkpt lat="45.40719" lon="5.90398">
        <ele>1656</ele>
        <time>2019-06-18T12:29:05Z</time>
      </trkpt>
      <trkpt lat="45.40725" lon="5.90387">
        <ele>1660</ele>
        <time>2019-06-18T12:29:35Z</time>
      </trkpt>
      <trkpt lat="45.40729" lon="5.90376">
        <ele>1666</ele>
        <time>2019-06-18T12:31:17Z</time>
      </trkpt>
      <trkpt lat="45.4073" lon="5.90365">
        <ele>1672</ele>
        <time>2019-06-18T12:33:18Z</time>
      </trkpt>
      <trkpt lat="45.40731" lon="5.90354">
        <ele>1673</ele>
        <time>2019-06-18T12:33:32Z</time>
      </trkpt>
      <trkpt lat="45.40728" lon="5.90345">
        <ele>1676</ele>
        <time>2019-06-18T12:33:42Z</time>
      </trkpt>
      <trkpt lat="45.40732" lon="5.9033">
        <ele>1678</ele>
        <time>2019-06-18T12:35:43Z</time>
      </trkpt>
      <trkpt lat="45.4074" lon="5.90329">
        <ele>1675</ele>
        <time>2019-06-18T12:36:16Z</time>
      </trkpt>
      <trkpt lat="45.40752" lon="5.90326">
        <ele>1676</ele>
        <time>2019-06-18T12:36:27Z</time>
      </trkpt>
      <trkpt lat="45.40762" lon="5.90325">
        <ele>1678</ele>
        <time>2019-06-18T12:36:40Z</time>
      </trkpt>
      <trkpt lat="45.4077" lon="5.90322">
        <ele>1677</ele>
        <time>2019-06-18T12:37:10Z</time>
      </trkpt>
      <trkpt lat="45.40777" lon="5.90323">
        <ele>1678</ele>
        <time>2019-06-18T12:37:20Z</time>
      </trkpt>
      <trkpt lat="45.4079" lon="5.90318">
        <ele>1678</ele>
        <time>2019-06-18T12:37:40Z</time>
      </trkpt>
      <trkpt lat="45.40799" lon="5.90316">
        <ele>1679</ele>
        <time>2019-06-18T12:38:39Z</time>
      </trkpt>
      <trkpt lat="45.40806" lon="5.90314">
        <ele>1678</ele>
        <time>2019-06-18T12:38:52Z</time>
      </trkpt>
      <trkpt lat="45.40817" lon="5.90319">
        <ele>1681</ele>
        <time>2019-06-18T12:39:04Z</time>
      </trkpt>
      <trkpt lat="45.40819" lon="5.90331">
        <ele>1680</ele>
        <time>2019-06-18T12:39:14Z</time>
      </trkpt>
      <trkpt lat="45.40812" lon="5.90334">
        <ele>1680</ele>
        <time>2019-06-18T12:39:19Z</time>
      </trkpt>
      <trkpt lat="45.40827" lon="5.90327">
        <ele>1680</ele>
        <time>2019-06-18T12:39:34Z</time>
      </trkpt>
      <trkpt lat="45.40861" lon="5.90326">
        <ele>1677</ele>
        <time>2019-06-18T12:40:10Z</time>
      </trkpt>
      <trkpt lat="45.40888" lon="5.90314">
        <ele>1674</ele>
        <time>2019-06-18T12:40:50Z</time>
      </trkpt>
      <trkpt lat="45.40906" lon="5.90304">
        <ele>1675</ele>
        <time>2019-06-18T12:41:21Z</time>
      </trkpt>
      <trkpt lat="45.40916" lon="5.90303">
        <ele>1675</ele>
        <time>2019-06-18T12:41:33Z</time>
      </trkpt>
      <trkpt lat="45.40923" lon="5.90309">
        <ele>1676</ele>
        <time>2019-06-18T12:41:43Z</time>
      </trkpt>
      <trkpt lat="45.40933" lon="5.90315">
        <ele>1676</ele>
        <time>2019-06-18T12:43:11Z</time>
      </trkpt>
      <trkpt lat="45.40949" lon="5.90317">
        <ele>1675</ele>
        <time>2019-06-18T12:43:59Z</time>
      </trkpt>
      <trkpt lat="45.40957" lon="5.90315">
        <ele>1676</ele>
        <time>2019-06-18T12:45:42Z</time>
      </trkpt>
      <trkpt lat="45.40968" lon="5.90313">
        <ele>1675</ele>
        <time>2019-06-18T12:45:56Z</time>
      </trkpt>
      <trkpt lat="45.40974" lon="5.90319">
        <ele>1675</ele>
        <time>2019-06-18T12:46:22Z</time>
      </trkpt>
      <trkpt lat="45.40986" lon="5.90327">
        <ele>1675</ele>
        <time>2019-06-18T12:46:35Z</time>
      </trkpt>
      <trkpt lat="45.40997" lon="5.9033">
        <ele>1675</ele>
        <time>2019-06-18T12:46:46Z</time>
      </trkpt>
      <trkpt lat="45.41005" lon="5.90329">
        <ele>1675</ele>
        <time>2019-06-18T12:47:05Z</time>
      </trkpt>
      <trkpt lat="45.41013" lon="5.90325">
        <ele>1678</ele>
        <time>2019-06-18T12:47:31Z</time>
      </trkpt>
      <trkpt lat="45.41026" lon="5.90321">
        <ele>1679</ele>
        <time>2019-06-18T12:47:44Z</time>
      </trkpt>
      <trkpt lat="45.41038" lon="5.9032">
        <ele>1681</ele>
        <time>2019-06-18T12:47:56Z</time>
      </trkpt>
      <trkpt lat="45.41058" lon="5.90314">
        <ele>1689</ele>
        <time>2019-06-18T12:48:36Z</time>
      </trkpt>
      <trkpt lat="45.41076" lon="5.9029">
        <ele>1698</ele>
        <time>2019-06-18T12:49:25Z</time>
      </trkpt>
      <trkpt lat="45.41075" lon="5.90277">
        <ele>1698</ele>
        <time>2019-06-18T12:49:45Z</time>
      </trkpt>
      <trkpt lat="45.41082" lon="5.90273">
        <ele>1703</ele>
        <time>2019-06-18T12:50:14Z</time>
      </trkpt>
      <trkpt lat="45.41091" lon="5.90277">
        <ele>1708</ele>
        <time>2019-06-18T12:50:35Z</time>
      </trkpt>
      <trkpt lat="45.41094" lon="5.90265">
        <ele>1714</ele>
        <time>2019-06-18T12:51:06Z</time>
      </trkpt>
      <trkpt lat="45.4109" lon="5.90256">
        <ele>1714</ele>
        <time>2019-06-18T12:51:20Z</time>
      </trkpt>
      <trkpt lat="45.41096" lon="5.90249">
        <ele>1715</ele>
        <time>2019-06-18T13:02:12Z</time>
      </trkpt>
      <trkpt lat="45.41105" lon="5.90238">
        <ele>1720</ele>
        <time>2019-06-18T13:02:42Z</time>
      </trkpt>
      <trkpt lat="45.41116" lon="5.90226">
        <ele>1723</ele>
        <time>2019-06-18T13:03:06Z</time>
      </trkpt>
      <trkpt lat="45.41131" lon="5.90221">
        <ele>1727</ele>
        <time>2019-06-18T13:03:31Z</time>
      </trkpt>
      <trkpt lat="45.41145" lon="5.90222">
        <ele>1728</ele>
        <time>2019-06-18T13:03:47Z</time>
      </trkpt>
      <trkpt lat="45.41163" lon="5.90231">
        <ele>1727</ele>
        <time>2019-06-18T13:04:07Z</time>
      </trkpt>
      <trkpt lat="45.41172" lon="5.90239">
        <ele>1726</ele>
        <time>2019-06-18T13:04:18Z</time>
      </trkpt>
      <trkpt lat="45.41184" lon="5.90241">
        <ele>1726</ele>
        <time>2019-06-18T13:04:31Z</time>
      </trkpt>
      <trkpt lat="45.41194" lon="5.90249">
        <ele>1722</ele>
        <time>2019-06-18T13:04:45Z</time>
      </trkpt>
      <trkpt lat="45.41203" lon="5.90246">
        <ele>1721</ele>
        <time>2019-06-18T13:04:56Z</time>
      </trkpt>
      <trkpt lat="45.41223" lon="5.9026">
        <ele>1720</ele>
        <time>2019-06-18T13:05:16Z</time>
      </trkpt>
      <trkpt lat="45.41234" lon="5.90265">
        <ele>1721</ele>
        <time>2019-06-18T13:05:33Z</time>
      </trkpt>
      <trkpt lat="45.41255" lon="5.90263">
        <ele>1724</ele>
        <time>2019-06-18T13:06:04Z</time>
      </trkpt>
      <trkpt lat="45.41263" lon="5.90264">
        <ele>1726</ele>
        <time>2019-06-18T13:06:18Z</time>
      </trkpt>
      <trkpt lat="45.41278" lon="5.90252">
        <ele>1730</ele>
        <time>2019-06-18T13:06:46Z</time>
      </trkpt>
      <trkpt lat="45.41288" lon="5.90253">
        <ele>1731</ele>
        <time>2019-06-18T13:06:57Z</time>
      </trkpt>
      <trkpt lat="45.41298" lon="5.90252">
        <ele>1731</ele>
        <time>2019-06-18T13:07:07Z</time>
      </trkpt>
      <trkpt lat="45.41308" lon="5.90244">
        <ele>1733</ele>
        <time>2019-06-18T13:07:24Z</time>
      </trkpt>
      <trkpt lat="45.41317" lon="5.9024">
        <ele>1734</ele>
        <time>2019-06-18T13:07:36Z</time>
      </trkpt>
      <trkpt lat="45.41327" lon="5.90232">
        <ele>1735</ele>
        <time>2019-06-18T13:08:07Z</time>
      </trkpt>
      <trkpt lat="45.41342" lon="5.90227">
        <ele>1738</ele>
        <time>2019-06-18T13:08:51Z</time>
      </trkpt>
      <trkpt lat="45.41336" lon="5.9022">
        <ele>1740</ele>
        <time>2019-06-18T13:09:28Z</time>
      </trkpt>
      <trkpt lat="45.41312" lon="5.90168">
        <ele>1739</ele>
        <time>2019-06-18T13:09:55Z</time>
      </trkpt>
      <trkpt lat="45.41301" lon="5.90151">
        <ele>1738</ele>
        <time>2019-06-18T13:10:13Z</time>
      </trkpt>
      <trkpt lat="45.41305" lon="5.90163">
        <ele>1738</ele>
        <time>2019-06-18T13:10:43Z</time>
      </trkpt>
      <trkpt lat="45.41309" lon="5.90166">
        <ele>1739</ele>
        <time>2019-06-18T13:11:55Z</time>
      </trkpt>
      <trkpt lat="45.41311" lon="5.90171">
        <ele>1741</ele>
        <time>2019-06-18T13:13:05Z</time>
      </trkpt>
      <trkpt lat="45.41306" lon="5.90154">
        <ele>1740</ele>
        <time>2019-06-18T13:13:32Z</time>
      </trkpt>
      <trkpt lat="45.41292" lon="5.90119">
        <ele>1741</ele>
        <time>2019-06-18T13:14:06Z</time>
      </trkpt>
      <trkpt lat="45.41303" lon="5.9012">
        <ele>1745</ele>
        <time>2019-06-18T13:15:06Z</time>
      </trkpt>
      <trkpt lat="45.41346" lon="5.90177">
        <ele>1748</ele>
        <time>2019-06-18T13:15:22Z</time>
      </trkpt>
      <trkpt lat="45.41357" lon="5.90182">
        <ele>1750</ele>
        <time>2019-06-18T13:15:35Z</time>
      </trkpt>
      <trkpt lat="45.41365" lon="5.90181">
        <ele>1753</ele>
        <time>2019-06-18T13:15:48Z</time>
      </trkpt>
      <trkpt lat="45.41377" lon="5.90181">
        <ele>1754</ele>
        <time>2019-06-18T13:16:18Z</time>
      </trkpt>
      <trkpt lat="45.41388" lon="5.90179">
        <ele>1758</ele>
        <time>2019-06-18T13:16:39Z</time>
      </trkpt>
      <trkpt lat="45.41399" lon="5.90174">
        <ele>1760</ele>
        <time>2019-06-18T13:16:51Z</time>
      </trkpt>
      <trkpt lat="45.41402" lon="5.90189">
        <ele>1764</ele>
        <time>2019-06-18T13:17:11Z</time>
      </trkpt>
      <trkpt lat="45.41419" lon="5.90192">
        <ele>1769</ele>
        <time>2019-06-18T13:17:39Z</time>
      </trkpt>
      <trkpt lat="45.41426" lon="5.90189">
        <ele>1770</ele>
        <time>2019-06-18T13:17:46Z</time>
      </trkpt>
      <trkpt lat="45.41455" lon="5.90176">
        <ele>1776</ele>
        <time>2019-06-18T13:18:33Z</time>
      </trkpt>
      <trkpt lat="45.41462" lon="5.90171">
        <ele>1776</ele>
        <time>2019-06-18T13:19:27Z</time>
      </trkpt>
      <trkpt lat="45.4147" lon="5.90168">
        <ele>1775</ele>
        <time>2019-06-18T13:19:53Z</time>
      </trkpt>
      <trkpt lat="45.41486" lon="5.90177">
        <ele>1774</ele>
        <time>2019-06-18T13:20:09Z</time>
      </trkpt>
      <trkpt lat="45.41493" lon="5.90185">
        <ele>1775</ele>
        <time>2019-06-18T13:20:17Z</time>
      </trkpt>
      <trkpt lat="45.41501" lon="5.9019">
        <ele>1776</ele>
        <time>2019-06-18T13:20:26Z</time>
      </trkpt>
      <trkpt lat="45.41512" lon="5.90196">
        <ele>1774</ele>
        <time>2019-06-18T13:20:41Z</time>
      </trkpt>
      <trkpt lat="45.41519" lon="5.90202">
        <ele>1774</ele>
        <time>2019-06-18T13:21:18Z</time>
      </trkpt>
      <trkpt lat="45.41528" lon="5.90205">
        <ele>1774</ele>
        <time>2019-06-18T13:21:30Z</time>
      </trkpt>
      <trkpt lat="45.41558" lon="5.90202">
        <ele>1778</ele>
        <time>2019-06-18T13:22:03Z</time>
      </trkpt>
      <trkpt lat="45.41571" lon="5.90208">
        <ele>1779</ele>
        <time>2019-06-18T13:22:26Z</time>
      </trkpt>
      <trkpt lat="45.4158" lon="5.90209">
        <ele>1780</ele>
        <time>2019-06-18T13:22:48Z</time>
      </trkpt>
      <trkpt lat="45.41592" lon="5.90208">
        <ele>1780</ele>
        <time>2019-06-18T13:23:11Z</time>
      </trkpt>
      <trkpt lat="45.41605" lon="5.90201">
        <ele>1782</ele>
        <time>2019-06-18T13:23:29Z</time>
      </trkpt>
      <trkpt lat="45.41613" lon="5.90204">
        <ele>1785</ele>
        <time>2019-06-18T13:23:52Z</time>
      </trkpt>
      <trkpt lat="45.41648" lon="5.90194">
        <ele>1790</ele>
        <time>2019-06-18T13:24:18Z</time>
      </trkpt>
      <trkpt lat="45.41655" lon="5.9019">
        <ele>1790</ele>
        <time>2019-06-18T13:24:23Z</time>
      </trkpt>
      <trkpt lat="45.41674" lon="5.90167">
        <ele>1794</ele>
        <time>2019-06-18T13:24:47Z</time>
      </trkpt>
      <trkpt lat="45.41671" lon="5.90139">
        <ele>1798</ele>
        <time>2019-06-18T13:25:04Z</time>
      </trkpt>
      <trkpt lat="45.41687" lon="5.90123">
        <ele>1801</ele>
        <time>2019-06-18T13:25:29Z</time>
      </trkpt>
      <trkpt lat="45.41692" lon="5.90112">
        <ele>1804</ele>
        <time>2019-06-18T13:25:41Z</time>
      </trkpt>
      <trkpt lat="45.417" lon="5.90112">
        <ele>1805</ele>
        <time>2019-06-18T13:26:16Z</time>
      </trkpt>
      <trkpt lat="45.41714" lon="5.90117">
        <ele>1804</ele>
        <time>2019-06-18T13:26:31Z</time>
      </trkpt>
      <trkpt lat="45.41723" lon="5.90115">
        <ele>1805</ele>
        <time>2019-06-18T13:26:41Z</time>
      </trkpt>
      <trkpt lat="45.41737" lon="5.9012">
        <ele>1807</ele>
        <time>2019-06-18T13:27:00Z</time>
      </trkpt>
      <trkpt lat="45.41744" lon="5.9012">
        <ele>1808</ele>
        <time>2019-06-18T13:27:09Z</time>
      </trkpt>
      <trkpt lat="45.41755" lon="5.90112">
        <ele>1810</ele>
        <time>2019-06-18T13:27:22Z</time>
      </trkpt>
      <trkpt lat="45.41769" lon="5.90107">
        <ele>1811</ele>
        <time>2019-06-18T13:27:43Z</time>
      </trkpt>
      <trkpt lat="45.41797" lon="5.90092">
        <ele>1816</ele>
        <time>2019-06-18T13:28:20Z</time>
      </trkpt>
      <trkpt lat="45.41811" lon="5.90085">
        <ele>1818</ele>
        <time>2019-06-18T13:28:35Z</time>
      </trkpt>
      <trkpt lat="45.41815" lon="5.90076">
        <ele>1818</ele>
        <time>2019-06-18T13:28:44Z</time>
      </trkpt>
      <trkpt lat="45.41826" lon="5.90059">
        <ele>1823</ele>
        <time>2019-06-18T13:29:07Z</time>
      </trkpt>
      <trkpt lat="45.41832" lon="5.90072">
        <ele>1820</ele>
        <time>2019-06-18T13:30:09Z</time>
      </trkpt>
      <trkpt lat="45.41837" lon="5.90083">
        <ele>1819</ele>
        <time>2019-06-18T13:30:23Z</time>
      </trkpt>
      <trkpt lat="45.41862" lon="5.9011">
        <ele>1815</ele>
        <time>2019-06-18T13:31:19Z</time>
      </trkpt>
      <trkpt lat="45.4187" lon="5.90116">
        <ele>1813</ele>
        <time>2019-06-18T13:31:37Z</time>
      </trkpt>
      <trkpt lat="45.41883" lon="5.90122">
        <ele>1812</ele>
        <time>2019-06-18T13:31:50Z</time>
      </trkpt>
      <trkpt lat="45.41893" lon="5.90132">
        <ele>1812</ele>
        <time>2019-06-18T13:32:07Z</time>
      </trkpt>
      <trkpt lat="45.41901" lon="5.90141">
        <ele>1811</ele>
        <time>2019-06-18T13:32:33Z</time>
      </trkpt>
      <trkpt lat="45.41909" lon="5.90143">
        <ele>1812</ele>
        <time>2019-06-18T13:32:43Z</time>
      </trkpt>
      <trkpt lat="45.4192" lon="5.90143">
        <ele>1811</ele>
        <time>2019-06-18T13:32:58Z</time>
      </trkpt>
      <trkpt lat="45.41931" lon="5.9015">
        <ele>1809</ele>
        <time>2019-06-18T13:33:08Z</time>
      </trkpt>
      <trkpt lat="45.41945" lon="5.90157">
        <ele>1809</ele>
        <time>2019-06-18T13:33:25Z</time>
      </trkpt>
      <trkpt lat="45.41952" lon="5.90162">
        <ele>1808</ele>
        <time>2019-06-18T13:34:17Z</time>
      </trkpt>
      <trkpt lat="45.41965" lon="5.90154">
        <ele>1803</ele>
        <time>2019-06-18T13:37:22Z</time>
      </trkpt>
      <trkpt lat="45.41964" lon="5.90143">
        <ele>1796</ele>
        <time>2019-06-18T13:38:09Z</time>
      </trkpt>
      <trkpt lat="45.41965" lon="5.90136">
        <ele>1789</ele>
        <time>2019-06-18T13:38:52Z</time>
      </trkpt>
      <trkpt lat="45.41957" lon="5.90136">
        <ele>1787</ele>
        <time>2019-06-18T13:39:27Z</time>
      </trkpt>
      <trkpt lat="45.41952" lon="5.90145">
        <ele>1787</ele>
        <time>2019-06-18T13:39:43Z</time>
      </trkpt>
      <trkpt lat="45.41939" lon="5.90135">
        <ele>1781</ele>
        <time>2019-06-18T13:41:07Z</time>
      </trkpt>
      <trkpt lat="45.41956" lon="5.90103">
        <ele>1780</ele>
        <time>2019-06-18T13:41:38Z</time>
      </trkpt>
      <trkpt lat="45.41948" lon="5.90117">
        <ele>1779</ele>
        <time>2019-06-18T13:41:59Z</time>
      </trkpt>
      <trkpt lat="45.41948" lon="5.90116">
        <ele>1779</ele>
        <time>2019-06-18T13:42:31Z</time>
      </trkpt>
      <trkpt lat="45.41952" lon="5.90121">
        <ele>1771</ele>
        <time>2019-06-18T13:44:36Z</time>
      </trkpt>
      <trkpt lat="45.41955" lon="5.90118">
        <ele>1763</ele>
        <time>2019-06-18T13:46:00Z</time>
      </trkpt>
      <trkpt lat="45.41955" lon="5.90106">
        <ele>1756</ele>
        <time>2019-06-18T13:47:21Z</time>
      </trkpt>
      <trkpt lat="45.41942" lon="5.901">
        <ele>1754</ele>
        <time>2019-06-18T13:47:48Z</time>
      </trkpt>
      <trkpt lat="45.41934" lon="5.90091">
        <ele>1751</ele>
        <time>2019-06-18T13:47:59Z</time>
      </trkpt>
      <trkpt lat="45.41937" lon="5.90081">
        <ele>1746</ele>
        <time>2019-06-18T13:48:22Z</time>
      </trkpt>
      <trkpt lat="45.41949" lon="5.9007">
        <ele>1741</ele>
        <time>2019-06-18T13:48:59Z</time>
      </trkpt>
      <trkpt lat="45.41956" lon="5.90066">
        <ele>1738</ele>
        <time>2019-06-18T13:49:24Z</time>
      </trkpt>
      <trkpt lat="45.41958" lon="5.90054">
        <ele>1731</ele>
        <time>2019-06-18T13:50:16Z</time>
      </trkpt>
      <trkpt lat="45.41965" lon="5.9005">
        <ele>1726</ele>
        <time>2019-06-18T13:50:48Z</time>
      </trkpt>
      <trkpt lat="45.41964" lon="5.90037">
        <ele>1720</ele>
        <time>2019-06-18T13:51:30Z</time>
      </trkpt>
      <trkpt lat="45.41955" lon="5.90033">
        <ele>1715</ele>
        <time>2019-06-18T13:51:53Z</time>
      </trkpt>
      <trkpt lat="45.41947" lon="5.90025">
        <ele>1712</ele>
        <time>2019-06-18T13:52:19Z</time>
      </trkpt>
      <trkpt lat="45.41952" lon="5.90013">
        <ele>1705</ele>
        <time>2019-06-18T13:53:06Z</time>
      </trkpt>
      <trkpt lat="45.41958" lon="5.90003">
        <ele>1700</ele>
        <time>2019-06-18T13:53:47Z</time>
      </trkpt>
      <trkpt lat="45.41955" lon="5.89979">
        <ele>1687</ele>
        <time>2019-06-18T13:55:22Z</time>
      </trkpt>
      <trkpt lat="45.41962" lon="5.89964">
        <ele>1681</ele>
        <time>2019-06-18T13:55:43Z</time>
      </trkpt>
      <trkpt lat="45.41958" lon="5.8995">
        <ele>1673</ele>
        <time>2019-06-18T13:56:21Z</time>
      </trkpt>
      <trkpt lat="45.41953" lon="5.89942">
        <ele>1668</ele>
        <time>2019-06-18T13:56:53Z</time>
      </trkpt>
      <trkpt lat="45.41946" lon="5.89934">
        <ele>1666</ele>
        <time>2019-06-18T13:57:08Z</time>
      </trkpt>
      <trkpt lat="45.41954" lon="5.8993">
        <ele>1663</ele>
        <time>2019-06-18T13:57:28Z</time>
      </trkpt>
      <trkpt lat="45.41953" lon="5.89924">
        <ele>1657</ele>
        <time>2019-06-18T13:57:58Z</time>
      </trkpt>
      <trkpt lat="45.41943" lon="5.89919">
        <ele>1655</ele>
        <time>2019-06-18T13:58:16Z</time>
      </trkpt>
      <trkpt lat="45.41938" lon="5.8991">
        <ele>1652</ele>
        <time>2019-06-18T13:58:57Z</time>
      </trkpt>
      <trkpt lat="45.41937" lon="5.89899">
        <ele>1640</ele>
        <time>2019-06-18T14:06:54Z</time>
      </trkpt>
      <trkpt lat="45.4195" lon="5.899">
        <ele>1638</ele>
        <time>2019-06-18T14:08:56Z</time>
      </trkpt>
      <trkpt lat="45.41956" lon="5.89889">
        <ele>1632</ele>
        <time>2019-06-18T14:09:36Z</time>
      </trkpt>
      <trkpt lat="45.41954" lon="5.89866">
        <ele>1622</ele>
        <time>2019-06-18T14:10:59Z</time>
      </trkpt>
      <trkpt lat="45.41961" lon="5.89861">
        <ele>1619</ele>
        <time>2019-06-18T14:11:31Z</time>
      </trkpt>
      <trkpt lat="45.41955" lon="5.89855">
        <ele>1615</ele>
        <time>2019-06-18T14:11:52Z</time>
      </trkpt>
      <trkpt lat="45.41958" lon="5.89844">
        <ele>1609</ele>
        <time>2019-06-18T14:12:12Z</time>
      </trkpt>
      <trkpt lat="45.41951" lon="5.89837">
        <ele>1603</ele>
        <time>2019-06-18T14:12:47Z</time>
      </trkpt>
      <trkpt lat="45.4196" lon="5.8983">
        <ele>1601</ele>
        <time>2019-06-18T14:13:12Z</time>
      </trkpt>
      <trkpt lat="45.41968" lon="5.89819">
        <ele>1594</ele>
        <time>2019-06-18T14:13:35Z</time>
      </trkpt>
      <trkpt lat="45.41968" lon="5.89808">
        <ele>1589</ele>
        <time>2019-06-18T14:14:17Z</time>
      </trkpt>
      <trkpt lat="45.41969" lon="5.89797">
        <ele>1583</ele>
        <time>2019-06-18T14:14:45Z</time>
      </trkpt>
      <trkpt lat="45.41964" lon="5.89787">
        <ele>1580</ele>
        <time>2019-06-18T14:15:06Z</time>
      </trkpt>
      <trkpt lat="45.41957" lon="5.8978">
        <ele>1576</ele>
        <time>2019-06-18T14:15:28Z</time>
      </trkpt>
      <trkpt lat="45.41958" lon="5.89764">
        <ele>1568</ele>
        <time>2019-06-18T14:16:20Z</time>
      </trkpt>
      <trkpt lat="45.4196" lon="5.89751">
        <ele>1557</ele>
        <time>2019-06-18T14:17:30Z</time>
      </trkpt>
      <trkpt lat="45.41961" lon="5.89726">
        <ele>1546</ele>
        <time>2019-06-18T14:18:38Z</time>
      </trkpt>
      <trkpt lat="45.41961" lon="5.89713">
        <ele>1539</ele>
        <time>2019-06-18T14:19:12Z</time>
      </trkpt>
      <trkpt lat="45.41959" lon="5.89695">
        <ele>1533</ele>
        <time>2019-06-18T14:19:33Z</time>
      </trkpt>
      <trkpt lat="45.41953" lon="5.89685">
        <ele>1529</ele>
        <time>2019-06-18T14:20:09Z</time>
      </trkpt>
      <trkpt lat="45.41946" lon="5.89685">
        <ele>1533</ele>
        <time>2019-06-18T14:20:55Z</time>
      </trkpt>
      <trkpt lat="45.41932" lon="5.89691">
        <ele>1535</ele>
        <time>2019-06-18T14:21:37Z</time>
      </trkpt>
      <trkpt lat="45.41913" lon="5.89685">
        <ele>1532</ele>
        <time>2019-06-18T14:22:38Z</time>
      </trkpt>
      <trkpt lat="45.41908" lon="5.89695">
        <ele>1539</ele>
        <time>2019-06-18T14:23:30Z</time>
      </trkpt>
      <trkpt lat="45.41902" lon="5.89703">
        <ele>1542</ele>
        <time>2019-06-18T14:23:54Z</time>
      </trkpt>
      <trkpt lat="45.41893" lon="5.89705">
        <ele>1544</ele>
        <time>2019-06-18T14:24:39Z</time>
      </trkpt>
      <trkpt lat="45.41885" lon="5.89708">
        <ele>1546</ele>
        <time>2019-06-18T14:24:55Z</time>
      </trkpt>
      <trkpt lat="45.41878" lon="5.89704">
        <ele>1543</ele>
        <time>2019-06-18T14:25:39Z</time>
      </trkpt>
      <trkpt lat="45.4188" lon="5.89694">
        <ele>1536</ele>
        <time>2019-06-18T14:26:26Z</time>
      </trkpt>
      <trkpt lat="45.41868" lon="5.89676">
        <ele>1530</ele>
        <time>2019-06-18T14:27:20Z</time>
      </trkpt>
      <trkpt lat="45.4187" lon="5.89665">
        <ele>1524</ele>
        <time>2019-06-18T14:27:56Z</time>
      </trkpt>
      <trkpt lat="45.41873" lon="5.89654">
        <ele>1516</ele>
        <time>2019-06-18T14:28:25Z</time>
      </trkpt>
      <trkpt lat="45.41869" lon="5.89644">
        <ele>1511</ele>
        <time>2019-06-18T14:29:48Z</time>
      </trkpt>
      <trkpt lat="45.41853" lon="5.89637">
        <ele>1510</ele>
        <time>2019-06-18T14:30:10Z</time>
      </trkpt>
      <trkpt lat="45.41846" lon="5.89631">
        <ele>1506</ele>
        <time>2019-06-18T14:30:57Z</time>
      </trkpt>
      <trkpt lat="45.41839" lon="5.89629">
        <ele>1505</ele>
        <time>2019-06-18T14:31:20Z</time>
      </trkpt>
      <trkpt lat="45.4183" lon="5.8962">
        <ele>1502</ele>
        <time>2019-06-18T14:31:35Z</time>
      </trkpt>
      <trkpt lat="45.4182" lon="5.89613">
        <ele>1499</ele>
        <time>2019-06-18T14:31:47Z</time>
      </trkpt>
      <trkpt lat="45.41812" lon="5.89615">
        <ele>1500</ele>
        <time>2019-06-18T14:32:17Z</time>
      </trkpt>
      <trkpt lat="45.41792" lon="5.896">
        <ele>1490</ele>
        <time>2019-06-18T14:33:10Z</time>
      </trkpt>
      <trkpt lat="45.41784" lon="5.896">
        <ele>1490</ele>
        <time>2019-06-18T14:33:20Z</time>
      </trkpt>
      <trkpt lat="45.41778" lon="5.89593">
        <ele>1491</ele>
        <time>2019-06-18T14:33:55Z</time>
      </trkpt>
      <trkpt lat="45.41769" lon="5.89586">
        <ele>1491</ele>
        <time>2019-06-18T14:34:30Z</time>
      </trkpt>
      <trkpt lat="45.41761" lon="5.89576">
        <ele>1494</ele>
        <time>2019-06-18T14:34:50Z</time>
      </trkpt>
      <trkpt lat="45.41752" lon="5.89563">
        <ele>1494</ele>
        <time>2019-06-18T14:35:09Z</time>
      </trkpt>
      <trkpt lat="45.41751" lon="5.89551">
        <ele>1492</ele>
        <time>2019-06-18T14:35:43Z</time>
      </trkpt>
      <trkpt lat="45.41752" lon="5.89503">
        <ele>1486</ele>
        <time>2019-06-18T14:36:09Z</time>
      </trkpt>
      <trkpt lat="45.41753" lon="5.89489">
        <ele>1486</ele>
        <time>2019-06-18T14:36:20Z</time>
      </trkpt>
      <trkpt lat="45.41752" lon="5.89476">
        <ele>1487</ele>
        <time>2019-06-18T14:36:32Z</time>
      </trkpt>
      <trkpt lat="45.41751" lon="5.89466">
        <ele>1486</ele>
        <time>2019-06-18T14:36:38Z</time>
      </trkpt>
      <trkpt lat="45.41752" lon="5.89453">
        <ele>1484</ele>
        <time>2019-06-18T14:37:18Z</time>
      </trkpt>
      <trkpt lat="45.41755" lon="5.89442">
        <ele>1481</ele>
        <time>2019-06-18T14:38:25Z</time>
      </trkpt>
      <trkpt lat="45.41762" lon="5.89407">
        <ele>1467</ele>
        <time>2019-06-18T14:39:17Z</time>
      </trkpt>
      <trkpt lat="45.41766" lon="5.89391">
        <ele>1465</ele>
        <time>2019-06-18T14:39:46Z</time>
      </trkpt>
      <trkpt lat="45.41766" lon="5.8938">
        <ele>1465</ele>
        <time>2019-06-18T14:39:57Z</time>
      </trkpt>
      <trkpt lat="45.4176" lon="5.89375">
        <ele>1463</ele>
        <time>2019-06-18T14:40:09Z</time>
      </trkpt>
      <trkpt lat="45.41766" lon="5.89367">
        <ele>1459</ele>
        <time>2019-06-18T14:40:39Z</time>
      </trkpt>
      <trkpt lat="45.4177" lon="5.89356">
        <ele>1458</ele>
        <time>2019-06-18T14:40:50Z</time>
      </trkpt>
      <trkpt lat="45.41765" lon="5.89322">
        <ele>1453</ele>
        <time>2019-06-18T14:41:15Z</time>
      </trkpt>
      <trkpt lat="45.4176" lon="5.89308">
        <ele>1449</ele>
        <time>2019-06-18T14:41:32Z</time>
      </trkpt>
      <trkpt lat="45.41742" lon="5.89315">
        <ele>1443</ele>
        <time>2019-06-18T14:42:10Z</time>
      </trkpt>
      <trkpt lat="45.41734" lon="5.89316">
        <ele>1440</ele>
        <time>2019-06-18T14:42:22Z</time>
      </trkpt>
      <trkpt lat="45.41725" lon="5.89307">
        <ele>1432</ele>
        <time>2019-06-18T14:43:17Z</time>
      </trkpt>
      <trkpt lat="45.41718" lon="5.89302">
        <ele>1427</ele>
        <time>2019-06-18T14:43:32Z</time>
      </trkpt>
      <trkpt lat="45.41706" lon="5.89298">
        <ele>1426</ele>
        <time>2019-06-18T14:43:54Z</time>
      </trkpt>
      <trkpt lat="45.41696" lon="5.89299">
        <ele>1424</ele>
        <time>2019-06-18T14:44:19Z</time>
      </trkpt>
      <trkpt lat="45.41687" lon="5.89295">
        <ele>1417</ele>
        <time>2019-06-18T14:44:49Z</time>
      </trkpt>
      <trkpt lat="45.41664" lon="5.89297">
        <ele>1410</ele>
        <time>2019-06-18T14:45:28Z</time>
      </trkpt>
      <trkpt lat="45.4164" lon="5.89287">
        <ele>1398</ele>
        <time>2019-06-18T14:46:20Z</time>
      </trkpt>
      <trkpt lat="45.41617" lon="5.89276">
        <ele>1391</ele>
        <time>2019-06-18T14:47:12Z</time>
      </trkpt>
      <trkpt lat="45.41596" lon="5.8927">
        <ele>1380</ele>
        <time>2019-06-18T14:48:43Z</time>
      </trkpt>
      <trkpt lat="45.41589" lon="5.89269">
        <ele>1377</ele>
        <time>2019-06-18T14:48:55Z</time>
      </trkpt>
      <trkpt lat="45.41567" lon="5.89247">
        <ele>1363</ele>
        <time>2019-06-18T14:49:40Z</time>
      </trkpt>
      <trkpt lat="45.41542" lon="5.89233">
        <ele>1354</ele>
        <time>2019-06-18T14:50:15Z</time>
      </trkpt>
      <trkpt lat="45.41531" lon="5.89233">
        <ele>1349</ele>
        <time>2019-06-18T14:50:33Z</time>
      </trkpt>
      <trkpt lat="45.41523" lon="5.89239">
        <ele>1344</ele>
        <time>2019-06-18T14:50:57Z</time>
      </trkpt>
      <trkpt lat="45.41516" lon="5.8924">
        <ele>1340</ele>
        <time>2019-06-18T14:51:08Z</time>
      </trkpt>
      <trkpt lat="45.41504" lon="5.89238">
        <ele>1334</ele>
        <time>2019-06-18T14:51:43Z</time>
      </trkpt>
      <trkpt lat="45.41486" lon="5.89227">
        <ele>1326</ele>
        <time>2019-06-18T14:52:13Z</time>
      </trkpt>
      <trkpt lat="45.41464" lon="5.8921">
        <ele>1317</ele>
        <time>2019-06-18T14:52:46Z</time>
      </trkpt>
      <trkpt lat="45.41456" lon="5.89199">
        <ele>1313</ele>
        <time>2019-06-18T14:52:55Z</time>
      </trkpt>
      <trkpt lat="45.41447" lon="5.892">
        <ele>1310</ele>
        <time>2019-06-18T14:53:40Z</time>
      </trkpt>
      <trkpt lat="45.41436" lon="5.89198">
        <ele>1306</ele>
        <time>2019-06-18T14:53:57Z</time>
      </trkpt>
      <trkpt lat="45.41406" lon="5.89181">
        <ele>1296</ele>
        <time>2019-06-18T14:54:33Z</time>
      </trkpt>
      <trkpt lat="45.41382" lon="5.89169">
        <ele>1287</ele>
        <time>2019-06-18T14:55:04Z</time>
      </trkpt>
      <trkpt lat="45.41359" lon="5.89168">
        <ele>1277</ele>
        <time>2019-06-18T14:55:51Z</time>
      </trkpt>
      <trkpt lat="45.41342" lon="5.89161">
        <ele>1271</ele>
        <time>2019-06-18T14:56:14Z</time>
      </trkpt>
      <trkpt lat="45.41322" lon="5.89148">
        <ele>1261</ele>
        <time>2019-06-18T14:56:43Z</time>
      </trkpt>
      <trkpt lat="45.41315" lon="5.89147">
        <ele>1258</ele>
        <time>2019-06-18T14:56:53Z</time>
      </trkpt>
      <trkpt lat="45.41305" lon="5.89142">
        <ele>1253</ele>
        <time>2019-06-18T14:57:17Z</time>
      </trkpt>
      <trkpt lat="45.41293" lon="5.89132">
        <ele>1246</ele>
        <time>2019-06-18T14:57:48Z</time>
      </trkpt>
      <trkpt lat="45.41272" lon="5.89125">
        <ele>1237</ele>
        <time>2019-06-18T14:58:27Z</time>
      </trkpt>
      <trkpt lat="45.41252" lon="5.89115">
        <ele>1229</ele>
        <time>2019-06-18T14:59:08Z</time>
      </trkpt>
      <trkpt lat="45.4124" lon="5.89106">
        <ele>1222</ele>
        <time>2019-06-18T14:59:29Z</time>
      </trkpt>
      <trkpt lat="45.41216" lon="5.89104">
        <ele>1213</ele>
        <time>2019-06-18T15:00:08Z</time>
      </trkpt>
      <trkpt lat="45.4119" lon="5.89098">
        <ele>1204</ele>
        <time>2019-06-18T15:00:55Z</time>
      </trkpt>
      <trkpt lat="45.41183" lon="5.89091">
        <ele>1200</ele>
        <time>2019-06-18T15:01:41Z</time>
      </trkpt>
      <trkpt lat="45.41165" lon="5.89074">
        <ele>1191</ele>
        <time>2019-06-18T15:02:13Z</time>
      </trkpt>
      <trkpt lat="45.41158" lon="5.89061">
        <ele>1187</ele>
        <time>2019-06-18T15:02:23Z</time>
      </trkpt>
      <trkpt lat="45.41138" lon="5.89046">
        <ele>1174</ele>
        <time>2019-06-18T15:03:05Z</time>
      </trkpt>
      <trkpt lat="45.41115" lon="5.8903">
        <ele>1166</ele>
        <time>2019-06-18T15:03:39Z</time>
      </trkpt>
      <trkpt lat="45.41107" lon="5.89027">
        <ele>1159</ele>
        <time>2019-06-18T15:03:58Z</time>
      </trkpt>
      <trkpt lat="45.41097" lon="5.89018">
        <ele>1151</ele>
        <time>2019-06-18T15:04:35Z</time>
      </trkpt>
      <trkpt lat="45.41084" lon="5.89008">
        <ele>1145</ele>
        <time>2019-06-18T15:04:56Z</time>
      </trkpt>
      <trkpt lat="45.41069" lon="5.89003">
        <ele>1139</ele>
        <time>2019-06-18T15:05:17Z</time>
      </trkpt>
      <trkpt lat="45.41059" lon="5.88983">
        <ele>1131</ele>
        <time>2019-06-18T15:05:52Z</time>
      </trkpt>
      <trkpt lat="45.4105" lon="5.88974">
        <ele>1124</ele>
        <time>2019-06-18T15:06:18Z</time>
      </trkpt>
      <trkpt lat="45.41042" lon="5.88991">
        <ele>1124</ele>
        <time>2019-06-18T15:06:38Z</time>
      </trkpt>
      <trkpt lat="45.4104" lon="5.89022">
        <ele>1122</ele>
        <time>2019-06-18T15:06:56Z</time>
      </trkpt>
      <trkpt lat="45.41041" lon="5.89057">
        <ele>1123</ele>
        <time>2019-06-18T15:07:15Z</time>
      </trkpt>
      <trkpt lat="45.41041" lon="5.89078">
        <ele>1122</ele>
        <time>2019-06-18T15:07:25Z</time>
      </trkpt>
      <trkpt lat="45.41041" lon="5.89099">
        <ele>1120</ele>
        <time>2019-06-18T15:07:36Z</time>
      </trkpt>
      <trkpt lat="45.41041" lon="5.89112">
        <ele>1122</ele>
        <time>2019-06-18T15:07:41Z</time>
      </trkpt>
      <trkpt lat="45.41028" lon="5.89153">
        <ele>1118</ele>
        <time>2019-06-18T15:08:10Z</time>
      </trkpt>
      <trkpt lat="45.41004" lon="5.89172">
        <ele>1116</ele>
        <time>2019-06-18T15:08:32Z</time>
      </trkpt>
      <trkpt lat="45.40992" lon="5.89186">
        <ele>1117</ele>
        <time>2019-06-18T15:08:40Z</time>
      </trkpt>
      <trkpt lat="45.40974" lon="5.89209">
        <ele>1116</ele>
        <time>2019-06-18T15:08:56Z</time>
      </trkpt>
      <trkpt lat="45.40966" lon="5.89219">
        <ele>1116</ele>
        <time>2019-06-18T15:09:06Z</time>
      </trkpt>
      <trkpt lat="45.40952" lon="5.89236">
        <ele>1115</ele>
        <time>2019-06-18T15:09:18Z</time>
      </trkpt>
      <trkpt lat="45.40916" lon="5.89263">
        <ele>1110</ele>
        <time>2019-06-18T15:09:48Z</time>
      </trkpt>
      <trkpt lat="45.40897" lon="5.89284">
        <ele>1110</ele>
        <time>2019-06-18T15:10:06Z</time>
      </trkpt>
      <trkpt lat="45.40889" lon="5.89292">
        <ele>1110</ele>
        <time>2019-06-18T15:10:13Z</time>
      </trkpt>
      <trkpt lat="45.40879" lon="5.89307">
        <ele>1109</ele>
        <time>2019-06-18T15:10:23Z</time>
      </trkpt>
      <trkpt lat="45.40867" lon="5.89336">
        <ele>1110</ele>
        <time>2019-06-18T15:10:43Z</time>
      </trkpt>
      <trkpt lat="45.40868" lon="5.89397">
        <ele>1104</ele>
        <time>2019-06-18T15:11:12Z</time>
      </trkpt>
      <trkpt lat="45.40867" lon="5.89425">
        <ele>1104</ele>
        <time>2019-06-18T15:11:25Z</time>
      </trkpt>
      <trkpt lat="45.40865" lon="5.89459">
        <ele>1105</ele>
        <time>2019-06-18T15:11:47Z</time>
      </trkpt>
      <trkpt lat="45.40857" lon="5.89464">
        <ele>1102</ele>
        <time>2019-06-18T15:12:28Z</time>
      </trkpt>
      <trkpt lat="45.40838" lon="5.89468">
        <ele>1095</ele>
        <time>2019-06-18T15:12:57Z</time>
      </trkpt>
      <trkpt lat="45.40831" lon="5.89473">
        <ele>1092</ele>
        <time>2019-06-18T15:13:06Z</time>
      </trkpt>
      <trkpt lat="45.40823" lon="5.89474">
        <ele>1088</ele>
        <time>2019-06-18T15:13:17Z</time>
      </trkpt>
      <trkpt lat="45.40811" lon="5.89466">
        <ele>1084</ele>
        <time>2019-06-18T15:13:29Z</time>
      </trkpt>
      <trkpt lat="45.408" lon="5.89468">
        <ele>1081</ele>
        <time>2019-06-18T15:13:39Z</time>
      </trkpt>
      <trkpt lat="45.40781" lon="5.89456">
        <ele>1069</ele>
        <time>2019-06-18T15:14:28Z</time>
      </trkpt>
      <trkpt lat="45.40772" lon="5.89441">
        <ele>1061</ele>
        <time>2019-06-18T15:15:01Z</time>
      </trkpt>
      <trkpt lat="45.40771" lon="5.89427">
        <ele>1057</ele>
        <time>2019-06-18T15:15:21Z</time>
      </trkpt>
      <trkpt lat="45.40778" lon="5.89417">
        <ele>1056</ele>
        <time>2019-06-18T15:15:31Z</time>
      </trkpt>
      <trkpt lat="45.40777" lon="5.89403">
        <ele>1053</ele>
        <time>2019-06-18T15:15:41Z</time>
      </trkpt>
      <trkpt lat="45.4077" lon="5.894">
        <ele>1050</ele>
        <time>2019-06-18T15:15:50Z</time>
      </trkpt>
      <trkpt lat="45.40764" lon="5.89381">
        <ele>1043</ele>
        <time>2019-06-18T15:16:17Z</time>
      </trkpt>
      <trkpt lat="45.40763" lon="5.89368">
        <ele>1040</ele>
        <time>2019-06-18T15:16:28Z</time>
      </trkpt>
      <trkpt lat="45.40758" lon="5.89357">
        <ele>1037</ele>
        <time>2019-06-18T15:16:39Z</time>
      </trkpt>
      <trkpt lat="45.40759" lon="5.89346">
        <ele>1035</ele>
        <time>2019-06-18T15:16:52Z</time>
      </trkpt>
      <trkpt lat="45.40754" lon="5.89337">
        <ele>1031</ele>
        <time>2019-06-18T15:18:48Z</time>
      </trkpt>
      <trkpt lat="45.40751" lon="5.89326">
        <ele>1027</ele>
        <time>2019-06-18T15:19:01Z</time>
      </trkpt>
      <trkpt lat="45.40752" lon="5.89298">
        <ele>1020</ele>
        <time>2019-06-18T15:19:41Z</time>
      </trkpt>
      <trkpt lat="45.40736" lon="5.89277">
        <ele>1011</ele>
        <time>2019-06-18T15:20:22Z</time>
      </trkpt>
      <trkpt lat="45.40725" lon="5.89271">
        <ele>1006</ele>
        <time>2019-06-18T15:20:48Z</time>
      </trkpt>
      <trkpt lat="45.40707" lon="5.89258">
        <ele>1003</ele>
        <time>2019-06-18T15:21:01Z</time>
      </trkpt>
      <trkpt lat="45.40696" lon="5.89254">
        <ele>999</ele>
        <time>2019-06-18T15:21:15Z</time>
      </trkpt>
      <trkpt lat="45.40702" lon="5.89239">
        <ele>994</ele>
        <time>2019-06-18T15:21:39Z</time>
      </trkpt>
      <trkpt lat="45.40706" lon="5.89231">
        <ele>992</ele>
        <time>2019-06-18T15:21:50Z</time>
      </trkpt>
      <trkpt lat="45.40706" lon="5.89218">
        <ele>985</ele>
        <time>2019-06-18T15:22:16Z</time>
      </trkpt>
      <trkpt lat="45.40693" lon="5.89197">
        <ele>978</ele>
        <time>2019-06-18T15:22:56Z</time>
      </trkpt>
      <trkpt lat="45.40688" lon="5.89187">
        <ele>975</ele>
        <time>2019-06-18T15:23:08Z</time>
      </trkpt>
      <trkpt lat="45.40674" lon="5.89168">
        <ele>968</ele>
        <time>2019-06-18T15:23:43Z</time>
      </trkpt>
      <trkpt lat="45.40668" lon="5.89163">
        <ele>962</ele>
        <time>2019-06-18T15:24:06Z</time>
      </trkpt>
      <trkpt lat="45.40664" lon="5.89152">
        <ele>960</ele>
        <time>2019-06-18T15:24:17Z</time>
      </trkpt>
      <trkpt lat="45.4065" lon="5.89137">
        <ele>956</ele>
        <time>2019-06-18T15:24:43Z</time>
      </trkpt>
      <trkpt lat="45.40642" lon="5.89119">
        <ele>949</ele>
        <time>2019-06-18T15:26:16Z</time>
      </trkpt>
      <trkpt lat="45.40636" lon="5.891">
        <ele>944</ele>
        <time>2019-06-18T15:26:35Z</time>
      </trkpt>
      <trkpt lat="45.40629" lon="5.89071">
        <ele>938</ele>
        <time>2019-06-18T15:26:54Z</time>
      </trkpt>
      <trkpt lat="45.40623" lon="5.8906">
        <ele>935</ele>
        <time>2019-06-18T15:27:04Z</time>
      </trkpt>
      <trkpt lat="45.40615" lon="5.89037">
        <ele>925</ele>
        <time>2019-06-18T15:27:35Z</time>
      </trkpt>
      <trkpt lat="45.40603" lon="5.89">
        <ele>914</ele>
        <time>2019-06-18T15:28:13Z</time>
      </trkpt>
      <trkpt lat="45.406" lon="5.88986">
        <ele>912</ele>
        <time>2019-06-18T15:28:22Z</time>
      </trkpt>
      <trkpt lat="45.40586" lon="5.88951">
        <ele>905</ele>
        <time>2019-06-18T15:28:44Z</time>
      </trkpt>
      <trkpt lat="45.4058" lon="5.88942">
        <ele>903</ele>
        <time>2019-06-18T15:28:50Z</time>
      </trkpt>
      <trkpt lat="45.40559" lon="5.88889">
        <ele>896</ele>
        <time>2019-06-18T15:29:15Z</time>
      </trkpt>
      <trkpt lat="45.40556" lon="5.88871">
        <ele>893</ele>
        <time>2019-06-18T15:29:23Z</time>
      </trkpt>
      <trkpt lat="45.40551" lon="5.88862">
        <ele>892</ele>
        <time>2019-06-18T15:29:32Z</time>
      </trkpt>
      <trkpt lat="45.40545" lon="5.8882">
        <ele>884</ele>
        <time>2019-06-18T15:29:59Z</time>
      </trkpt>
      <trkpt lat="45.40541" lon="5.88807">
        <ele>881</ele>
        <time>2019-06-18T15:30:08Z</time>
      </trkpt>
      <trkpt lat="45.4054" lon="5.88784">
        <ele>876</ele>
        <time>2019-06-18T15:30:24Z</time>
      </trkpt>
      <trkpt lat="45.40529" lon="5.88766">
        <ele>873</ele>
        <time>2019-06-18T15:30:38Z</time>
      </trkpt>
      <trkpt lat="45.40524" lon="5.88743">
        <ele>869</ele>
        <time>2019-06-18T15:31:44Z</time>
      </trkpt>
      <trkpt lat="45.4052" lon="5.88734">
        <ele>866</ele>
        <time>2019-06-18T15:32:56Z</time>
      </trkpt>
      <trkpt lat="45.40518" lon="5.88709">
        <ele>861</ele>
        <time>2019-06-18T15:33:13Z</time>
      </trkpt>
      <trkpt lat="45.40512" lon="5.88701">
        <ele>860</ele>
        <time>2019-06-18T15:33:21Z</time>
      </trkpt>
      <trkpt lat="45.405" lon="5.88668">
        <ele>855</ele>
        <time>2019-06-18T15:33:40Z</time>
      </trkpt>
      <trkpt lat="45.40494" lon="5.88663">
        <ele>854</ele>
        <time>2019-06-18T15:33:54Z</time>
      </trkpt>
      <trkpt lat="45.40485" lon="5.88668">
        <ele>854</ele>
        <time>2019-06-18T15:34:03Z</time>
      </trkpt>
      <trkpt lat="45.40474" lon="5.88688">
        <ele>856</ele>
        <time>2019-06-18T15:34:18Z</time>
      </trkpt>
      <trkpt lat="45.4047" lon="5.88706">
        <ele>858</ele>
        <time>2019-06-18T15:34:31Z</time>
      </trkpt>
      <trkpt lat="45.40464" lon="5.88714">
        <ele>858</ele>
        <time>2019-06-18T15:34:35Z</time>
      </trkpt>
      <trkpt lat="45.40435" lon="5.88733">
        <ele>858</ele>
        <time>2019-06-18T15:34:57Z</time>
      </trkpt>
      <trkpt lat="45.40401" lon="5.8877">
        <ele>859</ele>
        <time>2019-06-18T15:35:28Z</time>
      </trkpt>
      <trkpt lat="45.40395" lon="5.88776">
        <ele>859</ele>
        <time>2019-06-18T15:35:34Z</time>
      </trkpt>
      <trkpt lat="45.4039" lon="5.88784">
        <ele>859</ele>
        <time>2019-06-18T15:36:08Z</time>
      </trkpt>
      <trkpt lat="45.40373" lon="5.88802">
        <ele>859</ele>
        <time>2019-06-18T15:36:22Z</time>
      </trkpt>
      <trkpt lat="45.40346" lon="5.88866">
        <ele>861</ele>
        <time>2019-06-18T15:37:04Z</time>
      </trkpt>
      <trkpt lat="45.40311" lon="5.88909">
        <ele>864</ele>
        <time>2019-06-18T15:37:41Z</time>
      </trkpt>
      <trkpt lat="45.40287" lon="5.88933">
        <ele>866</ele>
        <time>2019-06-18T15:37:59Z</time>
      </trkpt>
      <trkpt lat="45.40266" lon="5.88943">
        <ele>867</ele>
        <time>2019-06-18T15:38:13Z</time>
      </trkpt>
      <trkpt lat="45.40252" lon="5.88952">
        <ele>866</ele>
        <time>2019-06-18T15:38:25Z</time>
      </trkpt>
      <trkpt lat="45.4023" lon="5.88969">
        <ele>867</ele>
        <time>2019-06-18T15:38:42Z</time>
      </trkpt>
      <trkpt lat="45.40221" lon="5.88984">
        <ele>868</ele>
        <time>2019-06-18T15:38:52Z</time>
      </trkpt>
      <trkpt lat="45.40196" lon="5.89012">
        <ele>867</ele>
        <time>2019-06-18T15:39:14Z</time>
      </trkpt>
      <trkpt lat="45.40186" lon="5.89029">
        <ele>867</ele>
        <time>2019-06-18T15:39:25Z</time>
      </trkpt>
      <trkpt lat="45.40157" lon="5.89062">
        <ele>864</ele>
        <time>2019-06-18T15:39:49Z</time>
      </trkpt>
    </trkseg>
  </trk>
</gpx>